<?xml version="1.0" encoding="UTF-8" standalone="no" ?>
<gpx xmlns="http://www.topografix.com/GPX/1/1" xmlns:xsi="http://www.w3.org/2001/XMLSchema-instance" xsi:schemaLocation="http://www.topografix.com/GPX/1/1 http://www.topografix.com/GPX/1/1/gpx.xsd" version="1.1" creator="VisuGPX - https://www.visugpx.com">
  <metadata>
    <name>2021-11-01 17:13:39 La Clayette</name>
  </metadata>
  <trk>
    <name><![CDATA[2021-11-01 17:13:39]]></name>
    <trkseg>
      <trkpt lat="46.29296" lon="4.30753">
        <ele>382.26</ele>
        <time>2021-11-01T13:51:20Z</time>
      </trkpt>
      <trkpt lat="46.29296" lon="4.30752">
        <ele>382.26</ele>
        <time>2021-11-01T13:51:21Z</time>
      </trkpt>
      <trkpt lat="46.29297" lon="4.30748">
        <ele>382.26</ele>
        <time>2021-11-01T13:51:29Z</time>
      </trkpt>
      <trkpt lat="46.29299" lon="4.30746">
        <ele>382.26</ele>
        <time>2021-11-01T13:51:38Z</time>
      </trkpt>
      <trkpt lat="46.29302" lon="4.30736">
        <ele>382.26</ele>
        <time>2021-11-01T13:51:47Z</time>
      </trkpt>
      <trkpt lat="46.29305" lon="4.30731">
        <ele>382.26</ele>
        <time>2021-11-01T13:51:55Z</time>
      </trkpt>
      <trkpt lat="46.29305" lon="4.30729">
        <ele>382.26</ele>
        <time>2021-11-01T13:52:02Z</time>
      </trkpt>
      <trkpt lat="46.29305" lon="4.30725">
        <ele>382.26</ele>
        <time>2021-11-01T13:52:14Z</time>
      </trkpt>
      <trkpt lat="46.29304" lon="4.30717">
        <ele>382.26</ele>
        <time>2021-11-01T13:52:22Z</time>
      </trkpt>
      <trkpt lat="46.29303" lon="4.30712">
        <ele>382.26</ele>
        <time>2021-11-01T13:52:26Z</time>
      </trkpt>
      <trkpt lat="46.29298" lon="4.30699">
        <ele>382.26</ele>
        <time>2021-11-01T13:52:36Z</time>
      </trkpt>
      <trkpt lat="46.29298" lon="4.30693">
        <ele>383.22</ele>
        <time>2021-11-01T13:52:46Z</time>
      </trkpt>
      <trkpt lat="46.29299" lon="4.30694">
        <ele>383.7</ele>
        <time>2021-11-01T13:52:59Z</time>
      </trkpt>
      <trkpt lat="46.29299" lon="4.30693">
        <ele>383.7</ele>
        <time>2021-11-01T13:53:10Z</time>
      </trkpt>
      <trkpt lat="46.29303" lon="4.3069">
        <ele>383.7</ele>
        <time>2021-11-01T13:53:22Z</time>
      </trkpt>
      <trkpt lat="46.29302" lon="4.30691">
        <ele>383.7</ele>
        <time>2021-11-01T13:53:35Z</time>
      </trkpt>
      <trkpt lat="46.29296" lon="4.30692">
        <ele>383.7</ele>
        <time>2021-11-01T13:53:44Z</time>
      </trkpt>
      <trkpt lat="46.29294" lon="4.3069">
        <ele>383.22</ele>
        <time>2021-11-01T13:53:54Z</time>
      </trkpt>
      <trkpt lat="46.29292" lon="4.30692">
        <ele>383.22</ele>
        <time>2021-11-01T13:54:06Z</time>
      </trkpt>
      <trkpt lat="46.29291" lon="4.30691">
        <ele>383.22</ele>
        <time>2021-11-01T13:54:17Z</time>
      </trkpt>
      <trkpt lat="46.29291" lon="4.30689">
        <ele>383.22</ele>
        <time>2021-11-01T13:54:29Z</time>
      </trkpt>
      <trkpt lat="46.29287" lon="4.30686">
        <ele>383.22</ele>
        <time>2021-11-01T13:54:44Z</time>
      </trkpt>
      <trkpt lat="46.29286" lon="4.30678">
        <ele>382.74</ele>
        <time>2021-11-01T13:54:54Z</time>
      </trkpt>
      <trkpt lat="46.29285" lon="4.30675">
        <ele>382.74</ele>
        <time>2021-11-01T13:55:06Z</time>
      </trkpt>
      <trkpt lat="46.29283" lon="4.30668">
        <ele>382.74</ele>
        <time>2021-11-01T13:55:14Z</time>
      </trkpt>
      <trkpt lat="46.29281" lon="4.30659">
        <ele>382.74</ele>
        <time>2021-11-01T13:55:22Z</time>
      </trkpt>
      <trkpt lat="46.29281" lon="4.30658">
        <ele>382.74</ele>
        <time>2021-11-01T13:55:29Z</time>
      </trkpt>
      <trkpt lat="46.29278" lon="4.30652">
        <ele>381.3</ele>
        <time>2021-11-01T13:55:37Z</time>
      </trkpt>
      <trkpt lat="46.29276" lon="4.30644">
        <ele>380.82</ele>
        <time>2021-11-01T13:55:44Z</time>
      </trkpt>
      <trkpt lat="46.29271" lon="4.30631">
        <ele>380.82</ele>
        <time>2021-11-01T13:55:54Z</time>
      </trkpt>
      <trkpt lat="46.29267" lon="4.3062">
        <ele>380.82</ele>
        <time>2021-11-01T13:56:04Z</time>
      </trkpt>
      <trkpt lat="46.29263" lon="4.30609">
        <ele>380.82</ele>
        <time>2021-11-01T13:56:13Z</time>
      </trkpt>
      <trkpt lat="46.29261" lon="4.30598">
        <ele>380.34</ele>
        <time>2021-11-01T13:56:21Z</time>
      </trkpt>
      <trkpt lat="46.2926" lon="4.30592">
        <ele>380.34</ele>
        <time>2021-11-01T13:56:28Z</time>
      </trkpt>
      <trkpt lat="46.2926" lon="4.3059">
        <ele>379.86</ele>
        <time>2021-11-01T13:56:29Z</time>
      </trkpt>
      <trkpt lat="46.2926" lon="4.30577">
        <ele>379.86</ele>
        <time>2021-11-01T13:56:38Z</time>
      </trkpt>
      <trkpt lat="46.2926" lon="4.30575">
        <ele>379.86</ele>
        <time>2021-11-01T13:56:40Z</time>
      </trkpt>
      <trkpt lat="46.29262" lon="4.30567">
        <ele>379.38</ele>
        <time>2021-11-01T13:56:49Z</time>
      </trkpt>
      <trkpt lat="46.29264" lon="4.3056">
        <ele>379.38</ele>
        <time>2021-11-01T13:56:57Z</time>
      </trkpt>
      <trkpt lat="46.29264" lon="4.30557">
        <ele>379.38</ele>
        <time>2021-11-01T13:57:04Z</time>
      </trkpt>
      <trkpt lat="46.2927" lon="4.30548">
        <ele>379.38</ele>
        <time>2021-11-01T13:57:13Z</time>
      </trkpt>
      <trkpt lat="46.29277" lon="4.30538">
        <ele>378.42</ele>
        <time>2021-11-01T13:57:23Z</time>
      </trkpt>
      <trkpt lat="46.29282" lon="4.30532">
        <ele>378.42</ele>
        <time>2021-11-01T13:57:30Z</time>
      </trkpt>
      <trkpt lat="46.29289" lon="4.30526">
        <ele>378.42</ele>
        <time>2021-11-01T13:57:39Z</time>
      </trkpt>
      <trkpt lat="46.29295" lon="4.30518">
        <ele>378.42</ele>
        <time>2021-11-01T13:57:47Z</time>
      </trkpt>
      <trkpt lat="46.29299" lon="4.30512">
        <ele>377.94</ele>
        <time>2021-11-01T13:57:54Z</time>
      </trkpt>
      <trkpt lat="46.29305" lon="4.30503">
        <ele>377.94</ele>
        <time>2021-11-01T13:58:02Z</time>
      </trkpt>
      <trkpt lat="46.29309" lon="4.30498">
        <ele>377.94</ele>
        <time>2021-11-01T13:58:07Z</time>
      </trkpt>
      <trkpt lat="46.29314" lon="4.30491">
        <ele>377.94</ele>
        <time>2021-11-01T13:58:16Z</time>
      </trkpt>
      <trkpt lat="46.29318" lon="4.30495">
        <ele>377.45</ele>
        <time>2021-11-01T13:58:26Z</time>
      </trkpt>
      <trkpt lat="46.29318" lon="4.30496">
        <ele>377.45</ele>
        <time>2021-11-01T13:58:46Z</time>
      </trkpt>
      <trkpt lat="46.29318" lon="4.30497">
        <ele>376.97</ele>
        <time>2021-11-01T13:59:02Z</time>
      </trkpt>
      <trkpt lat="46.29317" lon="4.30502">
        <ele>376.97</ele>
        <time>2021-11-01T13:59:17Z</time>
      </trkpt>
      <trkpt lat="46.29317" lon="4.30504">
        <ele>376.97</ele>
        <time>2021-11-01T13:59:33Z</time>
      </trkpt>
      <trkpt lat="46.29316" lon="4.30506">
        <ele>376.97</ele>
        <time>2021-11-01T13:59:47Z</time>
      </trkpt>
      <trkpt lat="46.29314" lon="4.30507">
        <ele>376.97</ele>
        <time>2021-11-01T14:00:07Z</time>
      </trkpt>
      <trkpt lat="46.29313" lon="4.30502">
        <ele>376.97</ele>
        <time>2021-11-01T14:00:16Z</time>
      </trkpt>
      <trkpt lat="46.29312" lon="4.30501">
        <ele>376.97</ele>
        <time>2021-11-01T14:00:17Z</time>
      </trkpt>
      <trkpt lat="46.29312" lon="4.30492">
        <ele>376.97</ele>
        <time>2021-11-01T14:00:26Z</time>
      </trkpt>
      <trkpt lat="46.2931" lon="4.30492">
        <ele>376.97</ele>
        <time>2021-11-01T14:00:35Z</time>
      </trkpt>
      <trkpt lat="46.2931" lon="4.30491">
        <ele>376.97</ele>
        <time>2021-11-01T14:00:36Z</time>
      </trkpt>
      <trkpt lat="46.29303" lon="4.30485">
        <ele>376.97</ele>
        <time>2021-11-01T14:00:45Z</time>
      </trkpt>
      <trkpt lat="46.29304" lon="4.30476">
        <ele>376.97</ele>
        <time>2021-11-01T14:00:52Z</time>
      </trkpt>
      <trkpt lat="46.29303" lon="4.30468">
        <ele>376.49</ele>
        <time>2021-11-01T14:00:58Z</time>
      </trkpt>
      <trkpt lat="46.293" lon="4.30454">
        <ele>376.49</ele>
        <time>2021-11-01T14:01:08Z</time>
      </trkpt>
      <trkpt lat="46.29297" lon="4.30441">
        <ele>376.01</ele>
        <time>2021-11-01T14:01:18Z</time>
      </trkpt>
      <trkpt lat="46.29293" lon="4.3043">
        <ele>375.53</ele>
        <time>2021-11-01T14:01:26Z</time>
      </trkpt>
      <trkpt lat="46.29285" lon="4.30416">
        <ele>375.53</ele>
        <time>2021-11-01T14:01:36Z</time>
      </trkpt>
      <trkpt lat="46.29278" lon="4.3041">
        <ele>375.05</ele>
        <time>2021-11-01T14:01:45Z</time>
      </trkpt>
      <trkpt lat="46.29275" lon="4.30407">
        <ele>375.05</ele>
        <time>2021-11-01T14:01:56Z</time>
      </trkpt>
      <trkpt lat="46.29273" lon="4.30395">
        <ele>375.05</ele>
        <time>2021-11-01T14:02:04Z</time>
      </trkpt>
      <trkpt lat="46.29273" lon="4.30392">
        <ele>375.05</ele>
        <time>2021-11-01T14:02:06Z</time>
      </trkpt>
      <trkpt lat="46.29273" lon="4.30381">
        <ele>375.05</ele>
        <time>2021-11-01T14:02:14Z</time>
      </trkpt>
      <trkpt lat="46.29273" lon="4.30367">
        <ele>374.57</ele>
        <time>2021-11-01T14:02:25Z</time>
      </trkpt>
      <trkpt lat="46.29268" lon="4.30356">
        <ele>374.09</ele>
        <time>2021-11-01T14:02:34Z</time>
      </trkpt>
      <trkpt lat="46.29264" lon="4.30348">
        <ele>373.61</ele>
        <time>2021-11-01T14:02:44Z</time>
      </trkpt>
      <trkpt lat="46.29262" lon="4.30337">
        <ele>373.13</ele>
        <time>2021-11-01T14:02:53Z</time>
      </trkpt>
      <trkpt lat="46.29261" lon="4.30331">
        <ele>373.13</ele>
        <time>2021-11-01T14:02:56Z</time>
      </trkpt>
      <trkpt lat="46.2926" lon="4.30325">
        <ele>373.13</ele>
        <time>2021-11-01T14:02:59Z</time>
      </trkpt>
      <trkpt lat="46.29257" lon="4.30309">
        <ele>372.65</ele>
        <time>2021-11-01T14:03:08Z</time>
      </trkpt>
      <trkpt lat="46.29255" lon="4.30304">
        <ele>372.65</ele>
        <time>2021-11-01T14:03:11Z</time>
      </trkpt>
      <trkpt lat="46.29253" lon="4.30289">
        <ele>372.17</ele>
        <time>2021-11-01T14:03:21Z</time>
      </trkpt>
      <trkpt lat="46.29252" lon="4.30275">
        <ele>371.69</ele>
        <time>2021-11-01T14:03:30Z</time>
      </trkpt>
      <trkpt lat="46.29249" lon="4.30261">
        <ele>371.69</ele>
        <time>2021-11-01T14:03:39Z</time>
      </trkpt>
      <trkpt lat="46.29247" lon="4.30247">
        <ele>371.21</ele>
        <time>2021-11-01T14:03:49Z</time>
      </trkpt>
      <trkpt lat="46.29245" lon="4.30237">
        <ele>371.21</ele>
        <time>2021-11-01T14:03:59Z</time>
      </trkpt>
      <trkpt lat="46.29245" lon="4.30234">
        <ele>371.21</ele>
        <time>2021-11-01T14:04:07Z</time>
      </trkpt>
      <trkpt lat="46.29243" lon="4.3023">
        <ele>371.21</ele>
        <time>2021-11-01T14:04:14Z</time>
      </trkpt>
      <trkpt lat="46.29239" lon="4.30229">
        <ele>370.73</ele>
        <time>2021-11-01T14:04:22Z</time>
      </trkpt>
      <trkpt lat="46.29233" lon="4.30232">
        <ele>370.73</ele>
        <time>2021-11-01T14:04:30Z</time>
      </trkpt>
      <trkpt lat="46.29227" lon="4.30235">
        <ele>370.73</ele>
        <time>2021-11-01T14:04:39Z</time>
      </trkpt>
      <trkpt lat="46.29223" lon="4.30237">
        <ele>370.73</ele>
        <time>2021-11-01T14:04:47Z</time>
      </trkpt>
      <trkpt lat="46.29217" lon="4.30234">
        <ele>370.24</ele>
        <time>2021-11-01T14:04:54Z</time>
      </trkpt>
      <trkpt lat="46.29212" lon="4.30237">
        <ele>370.24</ele>
        <time>2021-11-01T14:05:03Z</time>
      </trkpt>
      <trkpt lat="46.29205" lon="4.30238">
        <ele>370.24</ele>
        <time>2021-11-01T14:05:14Z</time>
      </trkpt>
      <trkpt lat="46.29202" lon="4.3024">
        <ele>370.24</ele>
        <time>2021-11-01T14:05:24Z</time>
      </trkpt>
      <trkpt lat="46.292" lon="4.30246">
        <ele>370.24</ele>
        <time>2021-11-01T14:05:33Z</time>
      </trkpt>
      <trkpt lat="46.292" lon="4.30261">
        <ele>370.24</ele>
        <time>2021-11-01T14:05:44Z</time>
      </trkpt>
      <trkpt lat="46.29197" lon="4.30268">
        <ele>370.24</ele>
        <time>2021-11-01T14:05:51Z</time>
      </trkpt>
      <trkpt lat="46.29195" lon="4.3027">
        <ele>371.69</ele>
        <time>2021-11-01T14:05:55Z</time>
      </trkpt>
      <trkpt lat="46.29186" lon="4.30276">
        <ele>373.61</ele>
        <time>2021-11-01T14:06:06Z</time>
      </trkpt>
      <trkpt lat="46.2918" lon="4.30279">
        <ele>374.09</ele>
        <time>2021-11-01T14:06:14Z</time>
      </trkpt>
      <trkpt lat="46.29171" lon="4.30278">
        <ele>375.05</ele>
        <time>2021-11-01T14:06:24Z</time>
      </trkpt>
      <trkpt lat="46.29169" lon="4.30277">
        <ele>375.05</ele>
        <time>2021-11-01T14:06:33Z</time>
      </trkpt>
      <trkpt lat="46.29161" lon="4.30272">
        <ele>375.53</ele>
        <time>2021-11-01T14:06:42Z</time>
      </trkpt>
      <trkpt lat="46.29151" lon="4.30266">
        <ele>376.01</ele>
        <time>2021-11-01T14:06:51Z</time>
      </trkpt>
      <trkpt lat="46.29142" lon="4.30272">
        <ele>376.97</ele>
        <time>2021-11-01T14:07:05Z</time>
      </trkpt>
      <trkpt lat="46.29138" lon="4.30286">
        <ele>378.42</ele>
        <time>2021-11-01T14:07:16Z</time>
      </trkpt>
      <trkpt lat="46.29138" lon="4.303">
        <ele>378.42</ele>
        <time>2021-11-01T14:07:26Z</time>
      </trkpt>
      <trkpt lat="46.2914" lon="4.30316">
        <ele>379.38</ele>
        <time>2021-11-01T14:07:37Z</time>
      </trkpt>
      <trkpt lat="46.29141" lon="4.30331">
        <ele>380.34</ele>
        <time>2021-11-01T14:07:47Z</time>
      </trkpt>
      <trkpt lat="46.2914" lon="4.30348">
        <ele>380.82</ele>
        <time>2021-11-01T14:07:58Z</time>
      </trkpt>
      <trkpt lat="46.29136" lon="4.30362">
        <ele>381.3</ele>
        <time>2021-11-01T14:08:09Z</time>
      </trkpt>
      <trkpt lat="46.29131" lon="4.30372">
        <ele>381.78</ele>
        <time>2021-11-01T14:08:18Z</time>
      </trkpt>
      <trkpt lat="46.29125" lon="4.30378">
        <ele>381.3</ele>
        <time>2021-11-01T14:08:26Z</time>
      </trkpt>
      <trkpt lat="46.29116" lon="4.30385">
        <ele>381.78</ele>
        <time>2021-11-01T14:08:37Z</time>
      </trkpt>
      <trkpt lat="46.29108" lon="4.3039">
        <ele>381.78</ele>
        <time>2021-11-01T14:08:46Z</time>
      </trkpt>
      <trkpt lat="46.29104" lon="4.304">
        <ele>382.26</ele>
        <time>2021-11-01T14:08:58Z</time>
      </trkpt>
      <trkpt lat="46.29099" lon="4.30406">
        <ele>383.22</ele>
        <time>2021-11-01T14:09:08Z</time>
      </trkpt>
      <trkpt lat="46.2909" lon="4.30413">
        <ele>383.22</ele>
        <time>2021-11-01T14:09:19Z</time>
      </trkpt>
      <trkpt lat="46.29083" lon="4.30418">
        <ele>383.22</ele>
        <time>2021-11-01T14:09:28Z</time>
      </trkpt>
      <trkpt lat="46.2908" lon="4.30426">
        <ele>383.22</ele>
        <time>2021-11-01T14:09:36Z</time>
      </trkpt>
      <trkpt lat="46.29077" lon="4.30436">
        <ele>383.22</ele>
        <time>2021-11-01T14:09:46Z</time>
      </trkpt>
      <trkpt lat="46.29069" lon="4.30441">
        <ele>384.18</ele>
        <time>2021-11-01T14:09:56Z</time>
      </trkpt>
      <trkpt lat="46.2906" lon="4.30444">
        <ele>384.66</ele>
        <time>2021-11-01T14:10:06Z</time>
      </trkpt>
      <trkpt lat="46.29054" lon="4.30446">
        <ele>385.63</ele>
        <time>2021-11-01T14:10:15Z</time>
      </trkpt>
      <trkpt lat="46.29053" lon="4.30445">
        <ele>385.63</ele>
        <time>2021-11-01T14:10:30Z</time>
      </trkpt>
      <trkpt lat="46.29054" lon="4.30441">
        <ele>385.63</ele>
        <time>2021-11-01T14:10:38Z</time>
      </trkpt>
      <trkpt lat="46.29053" lon="4.30441">
        <ele>385.15</ele>
        <time>2021-11-01T14:10:52Z</time>
      </trkpt>
      <trkpt lat="46.29052" lon="4.30444">
        <ele>385.15</ele>
        <time>2021-11-01T14:11:08Z</time>
      </trkpt>
      <trkpt lat="46.29055" lon="4.30443">
        <ele>385.15</ele>
        <time>2021-11-01T14:11:25Z</time>
      </trkpt>
      <trkpt lat="46.29057" lon="4.30443">
        <ele>385.15</ele>
        <time>2021-11-01T14:11:42Z</time>
      </trkpt>
      <trkpt lat="46.29055" lon="4.30442">
        <ele>385.15</ele>
        <time>2021-11-01T14:11:59Z</time>
      </trkpt>
      <trkpt lat="46.29055" lon="4.30445">
        <ele>385.15</ele>
        <time>2021-11-01T14:12:16Z</time>
      </trkpt>
      <trkpt lat="46.29053" lon="4.30447">
        <ele>385.63</ele>
        <time>2021-11-01T14:12:27Z</time>
      </trkpt>
      <trkpt lat="46.29053" lon="4.30446">
        <ele>386.11</ele>
        <time>2021-11-01T14:15:48Z</time>
      </trkpt>
      <trkpt lat="46.29066" lon="4.30445">
        <ele>384.18</ele>
        <time>2021-11-01T14:15:58Z</time>
      </trkpt>
      <trkpt lat="46.29071" lon="4.30445">
        <ele>383.7</ele>
        <time>2021-11-01T14:16:08Z</time>
      </trkpt>
      <trkpt lat="46.29073" lon="4.30444">
        <ele>383.22</ele>
        <time>2021-11-01T14:16:21Z</time>
      </trkpt>
      <trkpt lat="46.29071" lon="4.30446">
        <ele>383.22</ele>
        <time>2021-11-01T14:16:36Z</time>
      </trkpt>
      <trkpt lat="46.29072" lon="4.30444">
        <ele>382.74</ele>
        <time>2021-11-01T14:16:48Z</time>
      </trkpt>
      <trkpt lat="46.29076" lon="4.30443">
        <ele>382.26</ele>
        <time>2021-11-01T14:16:57Z</time>
      </trkpt>
      <trkpt lat="46.29088" lon="4.30453">
        <ele>381.78</ele>
        <time>2021-11-01T14:17:07Z</time>
      </trkpt>
      <trkpt lat="46.29096" lon="4.30464">
        <ele>381.78</ele>
        <time>2021-11-01T14:17:18Z</time>
      </trkpt>
      <trkpt lat="46.29102" lon="4.30472">
        <ele>381.3</ele>
        <time>2021-11-01T14:17:26Z</time>
      </trkpt>
      <trkpt lat="46.29102" lon="4.30477">
        <ele>381.3</ele>
        <time>2021-11-01T14:17:33Z</time>
      </trkpt>
      <trkpt lat="46.29108" lon="4.30476">
        <ele>381.3</ele>
        <time>2021-11-01T14:17:43Z</time>
      </trkpt>
      <trkpt lat="46.29111" lon="4.30486">
        <ele>381.3</ele>
        <time>2021-11-01T14:17:50Z</time>
      </trkpt>
      <trkpt lat="46.29113" lon="4.30489">
        <ele>381.3</ele>
        <time>2021-11-01T14:17:53Z</time>
      </trkpt>
      <trkpt lat="46.29115" lon="4.30503">
        <ele>380.82</ele>
        <time>2021-11-01T14:18:03Z</time>
      </trkpt>
      <trkpt lat="46.29118" lon="4.30509">
        <ele>380.82</ele>
        <time>2021-11-01T14:18:12Z</time>
      </trkpt>
      <trkpt lat="46.29121" lon="4.30516">
        <ele>380.82</ele>
        <time>2021-11-01T14:18:21Z</time>
      </trkpt>
      <trkpt lat="46.29122" lon="4.30519">
        <ele>380.82</ele>
        <time>2021-11-01T14:18:28Z</time>
      </trkpt>
      <trkpt lat="46.29124" lon="4.30512">
        <ele>381.3</ele>
        <time>2021-11-01T14:18:37Z</time>
      </trkpt>
      <trkpt lat="46.29125" lon="4.3051">
        <ele>381.3</ele>
        <time>2021-11-01T14:18:40Z</time>
      </trkpt>
      <trkpt lat="46.29132" lon="4.30505">
        <ele>381.3</ele>
        <time>2021-11-01T14:18:50Z</time>
      </trkpt>
      <trkpt lat="46.29141" lon="4.30501">
        <ele>380.82</ele>
        <time>2021-11-01T14:19:00Z</time>
      </trkpt>
      <trkpt lat="46.29148" lon="4.30497">
        <ele>380.34</ele>
        <time>2021-11-01T14:19:08Z</time>
      </trkpt>
      <trkpt lat="46.2915" lon="4.30497">
        <ele>380.34</ele>
        <time>2021-11-01T14:19:18Z</time>
      </trkpt>
      <trkpt lat="46.29146" lon="4.30501">
        <ele>380.34</ele>
        <time>2021-11-01T14:19:32Z</time>
      </trkpt>
      <trkpt lat="46.29146" lon="4.30502">
        <ele>380.34</ele>
        <time>2021-11-01T14:19:33Z</time>
      </trkpt>
      <trkpt lat="46.29144" lon="4.30506">
        <ele>380.34</ele>
        <time>2021-11-01T14:19:36Z</time>
      </trkpt>
      <trkpt lat="46.29143" lon="4.30508">
        <ele>380.34</ele>
        <time>2021-11-01T14:19:38Z</time>
      </trkpt>
      <trkpt lat="46.29137" lon="4.30516">
        <ele>380.34</ele>
        <time>2021-11-01T14:19:47Z</time>
      </trkpt>
      <trkpt lat="46.29137" lon="4.30518">
        <ele>380.34</ele>
        <time>2021-11-01T14:19:55Z</time>
      </trkpt>
      <trkpt lat="46.29136" lon="4.30517">
        <ele>380.34</ele>
        <time>2021-11-01T14:20:11Z</time>
      </trkpt>
      <trkpt lat="46.29124" lon="4.30522">
        <ele>380.34</ele>
        <time>2021-11-01T14:20:21Z</time>
      </trkpt>
      <trkpt lat="46.29121" lon="4.30524">
        <ele>380.34</ele>
        <time>2021-11-01T14:20:24Z</time>
      </trkpt>
      <trkpt lat="46.29119" lon="4.30534">
        <ele>380.34</ele>
        <time>2021-11-01T14:20:32Z</time>
      </trkpt>
      <trkpt lat="46.29125" lon="4.30549">
        <ele>381.78</ele>
        <time>2021-11-01T14:20:45Z</time>
      </trkpt>
      <trkpt lat="46.2913" lon="4.30567">
        <ele>381.78</ele>
        <time>2021-11-01T14:20:57Z</time>
      </trkpt>
      <trkpt lat="46.29133" lon="4.30584">
        <ele>381.78</ele>
        <time>2021-11-01T14:21:08Z</time>
      </trkpt>
      <trkpt lat="46.29139" lon="4.30597">
        <ele>381.78</ele>
        <time>2021-11-01T14:21:19Z</time>
      </trkpt>
      <trkpt lat="46.29147" lon="4.30606">
        <ele>382.26</ele>
        <time>2021-11-01T14:21:31Z</time>
      </trkpt>
      <trkpt lat="46.2915" lon="4.30619">
        <ele>382.26</ele>
        <time>2021-11-01T14:21:42Z</time>
      </trkpt>
      <trkpt lat="46.2915" lon="4.3063">
        <ele>382.26</ele>
        <time>2021-11-01T14:21:52Z</time>
      </trkpt>
      <trkpt lat="46.29151" lon="4.30634">
        <ele>382.26</ele>
        <time>2021-11-01T14:21:59Z</time>
      </trkpt>
      <trkpt lat="46.29153" lon="4.30639">
        <ele>382.26</ele>
        <time>2021-11-01T14:22:04Z</time>
      </trkpt>
      <trkpt lat="46.29162" lon="4.30644">
        <ele>382.26</ele>
        <time>2021-11-01T14:22:16Z</time>
      </trkpt>
      <trkpt lat="46.29165" lon="4.30658">
        <ele>382.26</ele>
        <time>2021-11-01T14:22:26Z</time>
      </trkpt>
      <trkpt lat="46.29167" lon="4.30664">
        <ele>382.26</ele>
        <time>2021-11-01T14:22:36Z</time>
      </trkpt>
      <trkpt lat="46.29171" lon="4.30672">
        <ele>382.26</ele>
        <time>2021-11-01T14:22:46Z</time>
      </trkpt>
      <trkpt lat="46.29172" lon="4.30689">
        <ele>382.26</ele>
        <time>2021-11-01T14:22:57Z</time>
      </trkpt>
      <trkpt lat="46.29174" lon="4.30705">
        <ele>382.26</ele>
        <time>2021-11-01T14:23:08Z</time>
      </trkpt>
      <trkpt lat="46.29174" lon="4.3071">
        <ele>382.26</ele>
        <time>2021-11-01T14:23:17Z</time>
      </trkpt>
      <trkpt lat="46.29172" lon="4.30719">
        <ele>382.26</ele>
        <time>2021-11-01T14:23:27Z</time>
      </trkpt>
      <trkpt lat="46.2917" lon="4.30722">
        <ele>382.26</ele>
        <time>2021-11-01T14:23:38Z</time>
      </trkpt>
      <trkpt lat="46.29169" lon="4.30733">
        <ele>382.26</ele>
        <time>2021-11-01T14:23:48Z</time>
      </trkpt>
      <trkpt lat="46.29168" lon="4.30753">
        <ele>382.26</ele>
        <time>2021-11-01T14:23:59Z</time>
      </trkpt>
      <trkpt lat="46.29169" lon="4.30765">
        <ele>382.26</ele>
        <time>2021-11-01T14:24:10Z</time>
      </trkpt>
      <trkpt lat="46.29169" lon="4.30773">
        <ele>382.26</ele>
        <time>2021-11-01T14:24:22Z</time>
      </trkpt>
      <trkpt lat="46.29166" lon="4.30775">
        <ele>382.26</ele>
        <time>2021-11-01T14:24:29Z</time>
      </trkpt>
      <trkpt lat="46.29161" lon="4.3078">
        <ele>382.26</ele>
        <time>2021-11-01T14:24:37Z</time>
      </trkpt>
      <trkpt lat="46.2916" lon="4.30782">
        <ele>382.26</ele>
        <time>2021-11-01T14:24:47Z</time>
      </trkpt>
      <trkpt lat="46.29156" lon="4.30783">
        <ele>382.26</ele>
        <time>2021-11-01T14:24:58Z</time>
      </trkpt>
      <trkpt lat="46.29147" lon="4.30782">
        <ele>382.74</ele>
        <time>2021-11-01T14:25:09Z</time>
      </trkpt>
      <trkpt lat="46.2914" lon="4.3078">
        <ele>383.22</ele>
        <time>2021-11-01T14:25:17Z</time>
      </trkpt>
      <trkpt lat="46.29136" lon="4.30775">
        <ele>383.22</ele>
        <time>2021-11-01T14:25:24Z</time>
      </trkpt>
      <trkpt lat="46.29131" lon="4.3077">
        <ele>383.7</ele>
        <time>2021-11-01T14:25:31Z</time>
      </trkpt>
      <trkpt lat="46.29126" lon="4.30764">
        <ele>384.18</ele>
        <time>2021-11-01T14:25:41Z</time>
      </trkpt>
      <trkpt lat="46.29125" lon="4.30764">
        <ele>383.7</ele>
        <time>2021-11-01T14:25:43Z</time>
      </trkpt>
      <trkpt lat="46.29129" lon="4.30782">
        <ele>384.66</ele>
        <time>2021-11-01T14:27:17Z</time>
      </trkpt>
      <trkpt lat="46.29123" lon="4.30776">
        <ele>386.59</ele>
        <time>2021-11-01T14:27:28Z</time>
      </trkpt>
      <trkpt lat="46.29117" lon="4.30781">
        <ele>387.07</ele>
        <time>2021-11-01T14:27:37Z</time>
      </trkpt>
      <trkpt lat="46.29109" lon="4.30786">
        <ele>387.55</ele>
        <time>2021-11-01T14:27:47Z</time>
      </trkpt>
      <trkpt lat="46.29102" lon="4.30784">
        <ele>388.51</ele>
        <time>2021-11-01T14:27:57Z</time>
      </trkpt>
      <trkpt lat="46.29098" lon="4.30782">
        <ele>388.99</ele>
        <time>2021-11-01T14:28:02Z</time>
      </trkpt>
      <trkpt lat="46.29095" lon="4.30781">
        <ele>388.99</ele>
        <time>2021-11-01T14:28:05Z</time>
      </trkpt>
      <trkpt lat="46.29089" lon="4.30777">
        <ele>390.43</ele>
        <time>2021-11-01T14:28:15Z</time>
      </trkpt>
      <trkpt lat="46.29085" lon="4.30778">
        <ele>390.43</ele>
        <time>2021-11-01T14:28:24Z</time>
      </trkpt>
      <trkpt lat="46.2908" lon="4.30777">
        <ele>390.91</ele>
        <time>2021-11-01T14:28:31Z</time>
      </trkpt>
      <trkpt lat="46.29072" lon="4.30776">
        <ele>392.36</ele>
        <time>2021-11-01T14:28:39Z</time>
      </trkpt>
      <trkpt lat="46.29071" lon="4.30776">
        <ele>392.36</ele>
        <time>2021-11-01T14:28:40Z</time>
      </trkpt>
      <trkpt lat="46.29066" lon="4.30777">
        <ele>392.84</ele>
        <time>2021-11-01T14:28:43Z</time>
      </trkpt>
      <trkpt lat="46.29053" lon="4.30777">
        <ele>394.28</ele>
        <time>2021-11-01T14:28:53Z</time>
      </trkpt>
      <trkpt lat="46.29041" lon="4.3078">
        <ele>394.76</ele>
        <time>2021-11-01T14:29:03Z</time>
      </trkpt>
      <trkpt lat="46.29034" lon="4.30784">
        <ele>396.68</ele>
        <time>2021-11-01T14:29:11Z</time>
      </trkpt>
      <trkpt lat="46.29026" lon="4.30786">
        <ele>398.12</ele>
        <time>2021-11-01T14:29:20Z</time>
      </trkpt>
      <trkpt lat="46.29021" lon="4.3079">
        <ele>399.08</ele>
        <time>2021-11-01T14:29:29Z</time>
      </trkpt>
      <trkpt lat="46.29014" lon="4.30791">
        <ele>400.05</ele>
        <time>2021-11-01T14:29:37Z</time>
      </trkpt>
      <trkpt lat="46.2901" lon="4.30793">
        <ele>401.49</ele>
        <time>2021-11-01T14:29:46Z</time>
      </trkpt>
      <trkpt lat="46.29005" lon="4.30795">
        <ele>402.45</ele>
        <time>2021-11-01T14:29:56Z</time>
      </trkpt>
      <trkpt lat="46.28997" lon="4.30798">
        <ele>403.89</ele>
        <time>2021-11-01T14:30:05Z</time>
      </trkpt>
      <trkpt lat="46.2899" lon="4.30802">
        <ele>405.33</ele>
        <time>2021-11-01T14:30:14Z</time>
      </trkpt>
      <trkpt lat="46.28985" lon="4.3081">
        <ele>406.29</ele>
        <time>2021-11-01T14:30:22Z</time>
      </trkpt>
      <trkpt lat="46.28984" lon="4.30818">
        <ele>407.74</ele>
        <time>2021-11-01T14:30:31Z</time>
      </trkpt>
      <trkpt lat="46.28985" lon="4.30822">
        <ele>408.22</ele>
        <time>2021-11-01T14:30:39Z</time>
      </trkpt>
      <trkpt lat="46.28987" lon="4.30833">
        <ele>409.18</ele>
        <time>2021-11-01T14:30:49Z</time>
      </trkpt>
      <trkpt lat="46.28988" lon="4.30848">
        <ele>409.66</ele>
        <time>2021-11-01T14:30:59Z</time>
      </trkpt>
      <trkpt lat="46.28988" lon="4.30856">
        <ele>410.14</ele>
        <time>2021-11-01T14:31:08Z</time>
      </trkpt>
      <trkpt lat="46.28987" lon="4.30858">
        <ele>410.14</ele>
        <time>2021-11-01T14:31:17Z</time>
      </trkpt>
      <trkpt lat="46.28986" lon="4.30859">
        <ele>410.14</ele>
        <time>2021-11-01T14:31:18Z</time>
      </trkpt>
      <trkpt lat="46.28981" lon="4.30872">
        <ele>411.58</ele>
        <time>2021-11-01T14:31:29Z</time>
      </trkpt>
      <trkpt lat="46.28976" lon="4.30884">
        <ele>412.54</ele>
        <time>2021-11-01T14:31:37Z</time>
      </trkpt>
      <trkpt lat="46.2897" lon="4.30896">
        <ele>413.98</ele>
        <time>2021-11-01T14:31:46Z</time>
      </trkpt>
      <trkpt lat="46.28965" lon="4.30902">
        <ele>414.95</ele>
        <time>2021-11-01T14:31:55Z</time>
      </trkpt>
      <trkpt lat="46.28959" lon="4.30906">
        <ele>415.91</ele>
        <time>2021-11-01T14:32:03Z</time>
      </trkpt>
      <trkpt lat="46.28953" lon="4.30913">
        <ele>416.87</ele>
        <time>2021-11-01T14:32:12Z</time>
      </trkpt>
      <trkpt lat="46.28948" lon="4.30917">
        <ele>417.83</ele>
        <time>2021-11-01T14:32:22Z</time>
      </trkpt>
      <trkpt lat="46.28944" lon="4.30924">
        <ele>418.31</ele>
        <time>2021-11-01T14:32:30Z</time>
      </trkpt>
      <trkpt lat="46.28944" lon="4.30925">
        <ele>418.79</ele>
        <time>2021-11-01T14:32:41Z</time>
      </trkpt>
      <trkpt lat="46.28943" lon="4.30929">
        <ele>419.27</ele>
        <time>2021-11-01T14:32:49Z</time>
      </trkpt>
      <trkpt lat="46.28947" lon="4.30929">
        <ele>419.27</ele>
        <time>2021-11-01T14:33:06Z</time>
      </trkpt>
      <trkpt lat="46.28945" lon="4.30928">
        <ele>419.27</ele>
        <time>2021-11-01T14:33:20Z</time>
      </trkpt>
      <trkpt lat="46.28941" lon="4.30923">
        <ele>418.79</ele>
        <time>2021-11-01T14:33:30Z</time>
      </trkpt>
      <trkpt lat="46.28942" lon="4.30919">
        <ele>418.79</ele>
        <time>2021-11-01T14:33:38Z</time>
      </trkpt>
      <trkpt lat="46.2894" lon="4.30913">
        <ele>418.79</ele>
        <time>2021-11-01T14:33:47Z</time>
      </trkpt>
      <trkpt lat="46.28938" lon="4.30905">
        <ele>417.83</ele>
        <time>2021-11-01T14:33:54Z</time>
      </trkpt>
      <trkpt lat="46.28939" lon="4.30895">
        <ele>417.83</ele>
        <time>2021-11-01T14:34:02Z</time>
      </trkpt>
      <trkpt lat="46.28937" lon="4.30883">
        <ele>417.35</ele>
        <time>2021-11-01T14:34:11Z</time>
      </trkpt>
      <trkpt lat="46.28935" lon="4.3088">
        <ele>417.35</ele>
        <time>2021-11-01T14:34:17Z</time>
      </trkpt>
      <trkpt lat="46.28933" lon="4.30877">
        <ele>417.35</ele>
        <time>2021-11-01T14:34:25Z</time>
      </trkpt>
      <trkpt lat="46.28934" lon="4.30878">
        <ele>417.35</ele>
        <time>2021-11-01T14:34:34Z</time>
      </trkpt>
      <trkpt lat="46.28938" lon="4.30877">
        <ele>416.87</ele>
        <time>2021-11-01T14:34:43Z</time>
      </trkpt>
      <trkpt lat="46.28938" lon="4.30871">
        <ele>416.87</ele>
        <time>2021-11-01T14:34:49Z</time>
      </trkpt>
      <trkpt lat="46.28939" lon="4.30863">
        <ele>416.39</ele>
        <time>2021-11-01T14:34:57Z</time>
      </trkpt>
      <trkpt lat="46.28937" lon="4.30855">
        <ele>416.39</ele>
        <time>2021-11-01T14:35:04Z</time>
      </trkpt>
      <trkpt lat="46.28934" lon="4.30844">
        <ele>415.91</ele>
        <time>2021-11-01T14:35:14Z</time>
      </trkpt>
      <trkpt lat="46.28933" lon="4.30834">
        <ele>415.43</ele>
        <time>2021-11-01T14:35:22Z</time>
      </trkpt>
      <trkpt lat="46.2893" lon="4.3082">
        <ele>415.43</ele>
        <time>2021-11-01T14:35:31Z</time>
      </trkpt>
      <trkpt lat="46.28929" lon="4.30812">
        <ele>414.95</ele>
        <time>2021-11-01T14:35:38Z</time>
      </trkpt>
      <trkpt lat="46.28928" lon="4.30809">
        <ele>414.95</ele>
        <time>2021-11-01T14:35:45Z</time>
      </trkpt>
      <trkpt lat="46.28925" lon="4.30797">
        <ele>414.47</ele>
        <time>2021-11-01T14:35:53Z</time>
      </trkpt>
      <trkpt lat="46.28923" lon="4.30787">
        <ele>414.47</ele>
        <time>2021-11-01T14:36:03Z</time>
      </trkpt>
      <trkpt lat="46.28921" lon="4.30777">
        <ele>413.5</ele>
        <time>2021-11-01T14:36:12Z</time>
      </trkpt>
      <trkpt lat="46.28918" lon="4.30773">
        <ele>413.5</ele>
        <time>2021-11-01T14:36:19Z</time>
      </trkpt>
      <trkpt lat="46.28914" lon="4.30764">
        <ele>413.5</ele>
        <time>2021-11-01T14:36:28Z</time>
      </trkpt>
      <trkpt lat="46.28913" lon="4.30763">
        <ele>413.5</ele>
        <time>2021-11-01T14:36:29Z</time>
      </trkpt>
      <trkpt lat="46.28904" lon="4.30752">
        <ele>413.02</ele>
        <time>2021-11-01T14:36:40Z</time>
      </trkpt>
      <trkpt lat="46.28899" lon="4.30744">
        <ele>412.54</ele>
        <time>2021-11-01T14:36:48Z</time>
      </trkpt>
      <trkpt lat="46.28893" lon="4.30736">
        <ele>412.54</ele>
        <time>2021-11-01T14:36:57Z</time>
      </trkpt>
      <trkpt lat="46.28885" lon="4.30728">
        <ele>412.54</ele>
        <time>2021-11-01T14:37:06Z</time>
      </trkpt>
      <trkpt lat="46.28877" lon="4.30723">
        <ele>411.58</ele>
        <time>2021-11-01T14:37:15Z</time>
      </trkpt>
      <trkpt lat="46.28871" lon="4.3072">
        <ele>412.06</ele>
        <time>2021-11-01T14:37:23Z</time>
      </trkpt>
      <trkpt lat="46.28868" lon="4.30721">
        <ele>413.02</ele>
        <time>2021-11-01T14:37:26Z</time>
      </trkpt>
      <trkpt lat="46.2886" lon="4.30722">
        <ele>414.47</ele>
        <time>2021-11-01T14:37:35Z</time>
      </trkpt>
      <trkpt lat="46.28854" lon="4.3072">
        <ele>415.43</ele>
        <time>2021-11-01T14:37:43Z</time>
      </trkpt>
      <trkpt lat="46.28849" lon="4.30718">
        <ele>415.91</ele>
        <time>2021-11-01T14:37:52Z</time>
      </trkpt>
      <trkpt lat="46.28845" lon="4.30716">
        <ele>415.91</ele>
        <time>2021-11-01T14:37:57Z</time>
      </trkpt>
      <trkpt lat="46.28833" lon="4.30713">
        <ele>416.39</ele>
        <time>2021-11-01T14:38:08Z</time>
      </trkpt>
      <trkpt lat="46.28823" lon="4.30712">
        <ele>416.39</ele>
        <time>2021-11-01T14:38:18Z</time>
      </trkpt>
      <trkpt lat="46.28815" lon="4.30711">
        <ele>416.39</ele>
        <time>2021-11-01T14:38:26Z</time>
      </trkpt>
      <trkpt lat="46.28805" lon="4.3071">
        <ele>416.39</ele>
        <time>2021-11-01T14:38:35Z</time>
      </trkpt>
      <trkpt lat="46.28804" lon="4.3071">
        <ele>416.39</ele>
        <time>2021-11-01T14:38:36Z</time>
      </trkpt>
      <trkpt lat="46.28794" lon="4.30709">
        <ele>416.39</ele>
        <time>2021-11-01T14:38:45Z</time>
      </trkpt>
      <trkpt lat="46.28783" lon="4.30709">
        <ele>414.95</ele>
        <time>2021-11-01T14:38:56Z</time>
      </trkpt>
      <trkpt lat="46.28775" lon="4.30707">
        <ele>414.95</ele>
        <time>2021-11-01T14:39:04Z</time>
      </trkpt>
      <trkpt lat="46.28766" lon="4.30701">
        <ele>413.98</ele>
        <time>2021-11-01T14:39:13Z</time>
      </trkpt>
      <trkpt lat="46.28758" lon="4.30692">
        <ele>413.98</ele>
        <time>2021-11-01T14:39:23Z</time>
      </trkpt>
      <trkpt lat="46.28756" lon="4.30693">
        <ele>413.5</ele>
        <time>2021-11-01T14:39:31Z</time>
      </trkpt>
      <trkpt lat="46.28748" lon="4.30685">
        <ele>412.54</ele>
        <time>2021-11-01T14:39:41Z</time>
      </trkpt>
      <trkpt lat="46.28745" lon="4.30684">
        <ele>412.54</ele>
        <time>2021-11-01T14:39:44Z</time>
      </trkpt>
      <trkpt lat="46.28734" lon="4.30687">
        <ele>412.06</ele>
        <time>2021-11-01T14:39:53Z</time>
      </trkpt>
      <trkpt lat="46.28726" lon="4.30689">
        <ele>412.06</ele>
        <time>2021-11-01T14:40:02Z</time>
      </trkpt>
      <trkpt lat="46.28714" lon="4.30691">
        <ele>411.58</ele>
        <time>2021-11-01T14:40:13Z</time>
      </trkpt>
      <trkpt lat="46.2871" lon="4.30693">
        <ele>411.58</ele>
        <time>2021-11-01T14:40:17Z</time>
      </trkpt>
      <trkpt lat="46.28708" lon="4.30704">
        <ele>412.06</ele>
        <time>2021-11-01T14:40:26Z</time>
      </trkpt>
      <trkpt lat="46.28708" lon="4.30707">
        <ele>412.06</ele>
        <time>2021-11-01T14:40:28Z</time>
      </trkpt>
      <trkpt lat="46.2871" lon="4.30723">
        <ele>412.06</ele>
        <time>2021-11-01T14:40:39Z</time>
      </trkpt>
      <trkpt lat="46.28711" lon="4.30733">
        <ele>413.02</ele>
        <time>2021-11-01T14:40:47Z</time>
      </trkpt>
      <trkpt lat="46.28711" lon="4.30744">
        <ele>413.5</ele>
        <time>2021-11-01T14:40:57Z</time>
      </trkpt>
      <trkpt lat="46.2871" lon="4.3075">
        <ele>413.5</ele>
        <time>2021-11-01T14:41:05Z</time>
      </trkpt>
      <trkpt lat="46.28711" lon="4.30754">
        <ele>413.5</ele>
        <time>2021-11-01T14:41:08Z</time>
      </trkpt>
      <trkpt lat="46.28708" lon="4.30768">
        <ele>413.5</ele>
        <time>2021-11-01T14:41:18Z</time>
      </trkpt>
      <trkpt lat="46.28706" lon="4.30785">
        <ele>413.5</ele>
        <time>2021-11-01T14:41:28Z</time>
      </trkpt>
      <trkpt lat="46.28704" lon="4.30798">
        <ele>413.98</ele>
        <time>2021-11-01T14:41:37Z</time>
      </trkpt>
      <trkpt lat="46.287" lon="4.30811">
        <ele>413.98</ele>
        <time>2021-11-01T14:41:46Z</time>
      </trkpt>
      <trkpt lat="46.28695" lon="4.30822">
        <ele>413.98</ele>
        <time>2021-11-01T14:41:54Z</time>
      </trkpt>
      <trkpt lat="46.2869" lon="4.30835">
        <ele>412.54</ele>
        <time>2021-11-01T14:42:04Z</time>
      </trkpt>
      <trkpt lat="46.2869" lon="4.30836">
        <ele>412.54</ele>
        <time>2021-11-01T14:42:05Z</time>
      </trkpt>
      <trkpt lat="46.28688" lon="4.30846">
        <ele>412.54</ele>
        <time>2021-11-01T14:42:14Z</time>
      </trkpt>
      <trkpt lat="46.28685" lon="4.30856">
        <ele>412.06</ele>
        <time>2021-11-01T14:42:22Z</time>
      </trkpt>
      <trkpt lat="46.28684" lon="4.30868">
        <ele>412.06</ele>
        <time>2021-11-01T14:42:31Z</time>
      </trkpt>
      <trkpt lat="46.28682" lon="4.30875">
        <ele>412.06</ele>
        <time>2021-11-01T14:42:37Z</time>
      </trkpt>
      <trkpt lat="46.28681" lon="4.30879">
        <ele>412.06</ele>
        <time>2021-11-01T14:42:46Z</time>
      </trkpt>
      <trkpt lat="46.28681" lon="4.30895">
        <ele>412.06</ele>
        <time>2021-11-01T14:42:56Z</time>
      </trkpt>
      <trkpt lat="46.28681" lon="4.30902">
        <ele>412.06</ele>
        <time>2021-11-01T14:43:00Z</time>
      </trkpt>
      <trkpt lat="46.28685" lon="4.3092">
        <ele>413.02</ele>
        <time>2021-11-01T14:43:11Z</time>
      </trkpt>
      <trkpt lat="46.28685" lon="4.30922">
        <ele>413.02</ele>
        <time>2021-11-01T14:43:12Z</time>
      </trkpt>
      <trkpt lat="46.28685" lon="4.30927">
        <ele>413.02</ele>
        <time>2021-11-01T14:43:16Z</time>
      </trkpt>
      <trkpt lat="46.28687" lon="4.30942">
        <ele>413.5</ele>
        <time>2021-11-01T14:43:25Z</time>
      </trkpt>
      <trkpt lat="46.28688" lon="4.30958">
        <ele>413.5</ele>
        <time>2021-11-01T14:43:34Z</time>
      </trkpt>
      <trkpt lat="46.2869" lon="4.30974">
        <ele>413.98</ele>
        <time>2021-11-01T14:43:44Z</time>
      </trkpt>
      <trkpt lat="46.2869" lon="4.30989">
        <ele>414.95</ele>
        <time>2021-11-01T14:43:54Z</time>
      </trkpt>
      <trkpt lat="46.2869" lon="4.31003">
        <ele>415.91</ele>
        <time>2021-11-01T14:44:03Z</time>
      </trkpt>
      <trkpt lat="46.2869" lon="4.31019">
        <ele>416.87</ele>
        <time>2021-11-01T14:44:13Z</time>
      </trkpt>
      <trkpt lat="46.2869" lon="4.31022">
        <ele>416.87</ele>
        <time>2021-11-01T14:44:15Z</time>
      </trkpt>
      <trkpt lat="46.28691" lon="4.31036">
        <ele>417.83</ele>
        <time>2021-11-01T14:44:25Z</time>
      </trkpt>
      <trkpt lat="46.2869" lon="4.31041">
        <ele>417.83</ele>
        <time>2021-11-01T14:44:28Z</time>
      </trkpt>
      <trkpt lat="46.28689" lon="4.31056">
        <ele>418.79</ele>
        <time>2021-11-01T14:44:38Z</time>
      </trkpt>
      <trkpt lat="46.28689" lon="4.3107">
        <ele>419.75</ele>
        <time>2021-11-01T14:44:49Z</time>
      </trkpt>
      <trkpt lat="46.28689" lon="4.31081">
        <ele>420.71</ele>
        <time>2021-11-01T14:44:57Z</time>
      </trkpt>
      <trkpt lat="46.28689" lon="4.31093">
        <ele>421.19</ele>
        <time>2021-11-01T14:45:06Z</time>
      </trkpt>
      <trkpt lat="46.28689" lon="4.31107">
        <ele>421.68</ele>
        <time>2021-11-01T14:45:15Z</time>
      </trkpt>
      <trkpt lat="46.28689" lon="4.31124">
        <ele>422.16</ele>
        <time>2021-11-01T14:45:25Z</time>
      </trkpt>
      <trkpt lat="46.28687" lon="4.31133">
        <ele>422.64</ele>
        <time>2021-11-01T14:45:31Z</time>
      </trkpt>
      <trkpt lat="46.28681" lon="4.31139">
        <ele>422.64</ele>
        <time>2021-11-01T14:45:37Z</time>
      </trkpt>
      <trkpt lat="46.28678" lon="4.31153">
        <ele>422.64</ele>
        <time>2021-11-01T14:45:47Z</time>
      </trkpt>
      <trkpt lat="46.28674" lon="4.3116">
        <ele>422.64</ele>
        <time>2021-11-01T14:45:57Z</time>
      </trkpt>
      <trkpt lat="46.28675" lon="4.3116">
        <ele>422.64</ele>
        <time>2021-11-01T14:46:12Z</time>
      </trkpt>
      <trkpt lat="46.28675" lon="4.31161">
        <ele>422.64</ele>
        <time>2021-11-01T14:46:29Z</time>
      </trkpt>
      <trkpt lat="46.28674" lon="4.31161">
        <ele>422.64</ele>
        <time>2021-11-01T14:46:38Z</time>
      </trkpt>
      <trkpt lat="46.28676" lon="4.31165">
        <ele>422.64</ele>
        <time>2021-11-01T14:46:48Z</time>
      </trkpt>
      <trkpt lat="46.28677" lon="4.31174">
        <ele>422.64</ele>
        <time>2021-11-01T14:46:57Z</time>
      </trkpt>
      <trkpt lat="46.28677" lon="4.31179">
        <ele>422.64</ele>
        <time>2021-11-01T14:47:01Z</time>
      </trkpt>
      <trkpt lat="46.28679" lon="4.31194">
        <ele>420.71</ele>
        <time>2021-11-01T14:47:12Z</time>
      </trkpt>
      <trkpt lat="46.28681" lon="4.31209">
        <ele>420.23</ele>
        <time>2021-11-01T14:47:24Z</time>
      </trkpt>
      <trkpt lat="46.28682" lon="4.31222">
        <ele>419.27</ele>
        <time>2021-11-01T14:47:33Z</time>
      </trkpt>
      <trkpt lat="46.28684" lon="4.31236">
        <ele>418.79</ele>
        <time>2021-11-01T14:47:43Z</time>
      </trkpt>
      <trkpt lat="46.28686" lon="4.31253">
        <ele>417.83</ele>
        <time>2021-11-01T14:47:55Z</time>
      </trkpt>
      <trkpt lat="46.28686" lon="4.31267">
        <ele>417.83</ele>
        <time>2021-11-01T14:48:04Z</time>
      </trkpt>
      <trkpt lat="46.28686" lon="4.31279">
        <ele>417.35</ele>
        <time>2021-11-01T14:48:12Z</time>
      </trkpt>
      <trkpt lat="46.28685" lon="4.31284">
        <ele>417.35</ele>
        <time>2021-11-01T14:48:15Z</time>
      </trkpt>
      <trkpt lat="46.28686" lon="4.31286">
        <ele>417.35</ele>
        <time>2021-11-01T14:48:17Z</time>
      </trkpt>
      <trkpt lat="46.28685" lon="4.31301">
        <ele>416.87</ele>
        <time>2021-11-01T14:48:27Z</time>
      </trkpt>
      <trkpt lat="46.28684" lon="4.31312">
        <ele>416.87</ele>
        <time>2021-11-01T14:48:36Z</time>
      </trkpt>
      <trkpt lat="46.28684" lon="4.31322">
        <ele>416.87</ele>
        <time>2021-11-01T14:48:46Z</time>
      </trkpt>
      <trkpt lat="46.28683" lon="4.31333">
        <ele>416.39</ele>
        <time>2021-11-01T14:48:55Z</time>
      </trkpt>
      <trkpt lat="46.28681" lon="4.31342">
        <ele>415.91</ele>
        <time>2021-11-01T14:49:02Z</time>
      </trkpt>
      <trkpt lat="46.28681" lon="4.31351">
        <ele>415.43</ele>
        <time>2021-11-01T14:49:10Z</time>
      </trkpt>
      <trkpt lat="46.2868" lon="4.31362">
        <ele>414.95</ele>
        <time>2021-11-01T14:49:20Z</time>
      </trkpt>
      <trkpt lat="46.2868" lon="4.31366">
        <ele>414.95</ele>
        <time>2021-11-01T14:49:28Z</time>
      </trkpt>
      <trkpt lat="46.2868" lon="4.3137">
        <ele>414.95</ele>
        <time>2021-11-01T14:49:42Z</time>
      </trkpt>
      <trkpt lat="46.28676" lon="4.31373">
        <ele>414.47</ele>
        <time>2021-11-01T14:49:57Z</time>
      </trkpt>
      <trkpt lat="46.28678" lon="4.31375">
        <ele>414.47</ele>
        <time>2021-11-01T14:50:13Z</time>
      </trkpt>
      <trkpt lat="46.28686" lon="4.31385">
        <ele>413.5</ele>
        <time>2021-11-01T14:50:23Z</time>
      </trkpt>
      <trkpt lat="46.28688" lon="4.31404">
        <ele>411.58</ele>
        <time>2021-11-01T14:50:35Z</time>
      </trkpt>
      <trkpt lat="46.28691" lon="4.31421">
        <ele>410.14</ele>
        <time>2021-11-01T14:50:46Z</time>
      </trkpt>
      <trkpt lat="46.28694" lon="4.3144">
        <ele>407.74</ele>
        <time>2021-11-01T14:50:58Z</time>
      </trkpt>
      <trkpt lat="46.28697" lon="4.31456">
        <ele>406.29</ele>
        <time>2021-11-01T14:51:08Z</time>
      </trkpt>
      <trkpt lat="46.287" lon="4.31471">
        <ele>404.85</ele>
        <time>2021-11-01T14:51:18Z</time>
      </trkpt>
      <trkpt lat="46.28703" lon="4.31488">
        <ele>402.93</ele>
        <time>2021-11-01T14:51:30Z</time>
      </trkpt>
      <trkpt lat="46.28708" lon="4.31509">
        <ele>401.49</ele>
        <time>2021-11-01T14:51:43Z</time>
      </trkpt>
      <trkpt lat="46.28712" lon="4.31517">
        <ele>401.01</ele>
        <time>2021-11-01T14:51:49Z</time>
      </trkpt>
      <trkpt lat="46.28719" lon="4.31531">
        <ele>399.57</ele>
        <time>2021-11-01T14:51:59Z</time>
      </trkpt>
      <trkpt lat="46.28719" lon="4.31544">
        <ele>398.12</ele>
        <time>2021-11-01T14:52:07Z</time>
      </trkpt>
      <trkpt lat="46.28721" lon="4.31566">
        <ele>396.68</ele>
        <time>2021-11-01T14:52:18Z</time>
      </trkpt>
      <trkpt lat="46.28723" lon="4.31587">
        <ele>395.24</ele>
        <time>2021-11-01T14:52:30Z</time>
      </trkpt>
      <trkpt lat="46.28725" lon="4.31596">
        <ele>394.28</ele>
        <time>2021-11-01T14:52:40Z</time>
      </trkpt>
      <trkpt lat="46.28724" lon="4.31596">
        <ele>394.28</ele>
        <time>2021-11-01T14:52:52Z</time>
      </trkpt>
      <trkpt lat="46.28723" lon="4.31596">
        <ele>394.28</ele>
        <time>2021-11-01T14:53:09Z</time>
      </trkpt>
      <trkpt lat="46.28729" lon="4.31596">
        <ele>394.28</ele>
        <time>2021-11-01T14:53:30Z</time>
      </trkpt>
      <trkpt lat="46.28737" lon="4.31595">
        <ele>393.8</ele>
        <time>2021-11-01T14:53:39Z</time>
      </trkpt>
      <trkpt lat="46.28738" lon="4.31594">
        <ele>393.8</ele>
        <time>2021-11-01T14:53:40Z</time>
      </trkpt>
      <trkpt lat="46.28752" lon="4.31592">
        <ele>393.32</ele>
        <time>2021-11-01T14:53:52Z</time>
      </trkpt>
      <trkpt lat="46.28755" lon="4.31591">
        <ele>393.32</ele>
        <time>2021-11-01T14:53:57Z</time>
      </trkpt>
      <trkpt lat="46.28769" lon="4.31594">
        <ele>392.36</ele>
        <time>2021-11-01T14:54:08Z</time>
      </trkpt>
      <trkpt lat="46.28782" lon="4.31596">
        <ele>391.87</ele>
        <time>2021-11-01T14:54:19Z</time>
      </trkpt>
      <trkpt lat="46.28786" lon="4.31597">
        <ele>391.39</ele>
        <time>2021-11-01T14:54:24Z</time>
      </trkpt>
      <trkpt lat="46.28792" lon="4.31599">
        <ele>390.91</ele>
        <time>2021-11-01T14:54:30Z</time>
      </trkpt>
      <trkpt lat="46.28804" lon="4.31606">
        <ele>390.43</ele>
        <time>2021-11-01T14:54:39Z</time>
      </trkpt>
      <trkpt lat="46.28807" lon="4.31607">
        <ele>390.43</ele>
        <time>2021-11-01T14:54:41Z</time>
      </trkpt>
      <trkpt lat="46.28819" lon="4.31612">
        <ele>390.43</ele>
        <time>2021-11-01T14:54:53Z</time>
      </trkpt>
      <trkpt lat="46.28829" lon="4.31614">
        <ele>390.43</ele>
        <time>2021-11-01T14:55:01Z</time>
      </trkpt>
      <trkpt lat="46.2884" lon="4.31618">
        <ele>390.43</ele>
        <time>2021-11-01T14:55:11Z</time>
      </trkpt>
      <trkpt lat="46.28851" lon="4.31621">
        <ele>390.43</ele>
        <time>2021-11-01T14:55:21Z</time>
      </trkpt>
      <trkpt lat="46.28863" lon="4.31625">
        <ele>390.43</ele>
        <time>2021-11-01T14:55:30Z</time>
      </trkpt>
      <trkpt lat="46.28875" lon="4.31629">
        <ele>390.43</ele>
        <time>2021-11-01T14:55:40Z</time>
      </trkpt>
      <trkpt lat="46.28884" lon="4.31634">
        <ele>390.43</ele>
        <time>2021-11-01T14:55:50Z</time>
      </trkpt>
      <trkpt lat="46.28885" lon="4.31634">
        <ele>390.43</ele>
        <time>2021-11-01T14:55:51Z</time>
      </trkpt>
      <trkpt lat="46.28902" lon="4.3164">
        <ele>390.43</ele>
        <time>2021-11-01T14:56:05Z</time>
      </trkpt>
      <trkpt lat="46.28914" lon="4.31643">
        <ele>390.43</ele>
        <time>2021-11-01T14:56:14Z</time>
      </trkpt>
      <trkpt lat="46.28924" lon="4.31647">
        <ele>390.43</ele>
        <time>2021-11-01T14:56:24Z</time>
      </trkpt>
      <trkpt lat="46.28935" lon="4.3165">
        <ele>390.43</ele>
        <time>2021-11-01T14:56:33Z</time>
      </trkpt>
      <trkpt lat="46.28941" lon="4.31649">
        <ele>390.43</ele>
        <time>2021-11-01T14:56:42Z</time>
      </trkpt>
      <trkpt lat="46.28944" lon="4.31645">
        <ele>390.43</ele>
        <time>2021-11-01T14:56:49Z</time>
      </trkpt>
      <trkpt lat="46.28946" lon="4.31644">
        <ele>390.43</ele>
        <time>2021-11-01T14:56:52Z</time>
      </trkpt>
      <trkpt lat="46.28948" lon="4.31643">
        <ele>390.43</ele>
        <time>2021-11-01T14:56:54Z</time>
      </trkpt>
      <trkpt lat="46.28952" lon="4.31633">
        <ele>390.43</ele>
        <time>2021-11-01T14:57:03Z</time>
      </trkpt>
      <trkpt lat="46.28952" lon="4.3163">
        <ele>391.39</ele>
        <time>2021-11-01T14:57:05Z</time>
      </trkpt>
      <trkpt lat="46.28954" lon="4.31616">
        <ele>392.36</ele>
        <time>2021-11-01T14:57:15Z</time>
      </trkpt>
      <trkpt lat="46.28953" lon="4.31613">
        <ele>392.36</ele>
        <time>2021-11-01T14:57:17Z</time>
      </trkpt>
      <trkpt lat="46.28952" lon="4.31595">
        <ele>392.84</ele>
        <time>2021-11-01T14:57:26Z</time>
      </trkpt>
      <trkpt lat="46.28954" lon="4.31586">
        <ele>393.8</ele>
        <time>2021-11-01T14:57:34Z</time>
      </trkpt>
      <trkpt lat="46.28954" lon="4.31573">
        <ele>394.28</ele>
        <time>2021-11-01T14:57:44Z</time>
      </trkpt>
      <trkpt lat="46.28955" lon="4.31571">
        <ele>394.28</ele>
        <time>2021-11-01T14:57:46Z</time>
      </trkpt>
      <trkpt lat="46.28957" lon="4.31562">
        <ele>394.76</ele>
        <time>2021-11-01T14:57:54Z</time>
      </trkpt>
      <trkpt lat="46.28961" lon="4.31563">
        <ele>394.76</ele>
        <time>2021-11-01T14:58:02Z</time>
      </trkpt>
      <trkpt lat="46.28967" lon="4.31565">
        <ele>393.32</ele>
        <time>2021-11-01T14:58:09Z</time>
      </trkpt>
      <trkpt lat="46.28976" lon="4.31569">
        <ele>392.36</ele>
        <time>2021-11-01T14:58:18Z</time>
      </trkpt>
      <trkpt lat="46.28984" lon="4.31572">
        <ele>390.91</ele>
        <time>2021-11-01T14:58:28Z</time>
      </trkpt>
      <trkpt lat="46.28991" lon="4.31578">
        <ele>389.95</ele>
        <time>2021-11-01T14:58:38Z</time>
      </trkpt>
      <trkpt lat="46.28994" lon="4.3158">
        <ele>388.99</ele>
        <time>2021-11-01T14:58:41Z</time>
      </trkpt>
      <trkpt lat="46.29008" lon="4.31582">
        <ele>387.07</ele>
        <time>2021-11-01T14:58:53Z</time>
      </trkpt>
      <trkpt lat="46.29019" lon="4.31585">
        <ele>385.63</ele>
        <time>2021-11-01T14:59:03Z</time>
      </trkpt>
      <trkpt lat="46.29027" lon="4.31588">
        <ele>384.18</ele>
        <time>2021-11-01T14:59:13Z</time>
      </trkpt>
      <trkpt lat="46.29033" lon="4.3159">
        <ele>383.22</ele>
        <time>2021-11-01T14:59:21Z</time>
      </trkpt>
      <trkpt lat="46.29036" lon="4.31594">
        <ele>382.74</ele>
        <time>2021-11-01T14:59:31Z</time>
      </trkpt>
      <trkpt lat="46.29037" lon="4.31597">
        <ele>382.26</ele>
        <time>2021-11-01T14:59:42Z</time>
      </trkpt>
      <trkpt lat="46.29038" lon="4.316">
        <ele>382.26</ele>
        <time>2021-11-01T14:59:50Z</time>
      </trkpt>
      <trkpt lat="46.29038" lon="4.31605">
        <ele>382.26</ele>
        <time>2021-11-01T15:00:02Z</time>
      </trkpt>
      <trkpt lat="46.29037" lon="4.31614">
        <ele>382.26</ele>
        <time>2021-11-01T15:00:10Z</time>
      </trkpt>
      <trkpt lat="46.29037" lon="4.31617">
        <ele>382.26</ele>
        <time>2021-11-01T15:00:12Z</time>
      </trkpt>
      <trkpt lat="46.29036" lon="4.3163">
        <ele>382.26</ele>
        <time>2021-11-01T15:00:22Z</time>
      </trkpt>
      <trkpt lat="46.29037" lon="4.31637">
        <ele>383.7</ele>
        <time>2021-11-01T15:00:27Z</time>
      </trkpt>
      <trkpt lat="46.29041" lon="4.31647">
        <ele>383.7</ele>
        <time>2021-11-01T15:00:37Z</time>
      </trkpt>
      <trkpt lat="46.29041" lon="4.31655">
        <ele>384.18</ele>
        <time>2021-11-01T15:00:43Z</time>
      </trkpt>
      <trkpt lat="46.29041" lon="4.3167">
        <ele>384.66</ele>
        <time>2021-11-01T15:00:54Z</time>
      </trkpt>
      <trkpt lat="46.29049" lon="4.31677">
        <ele>382.26</ele>
        <time>2021-11-01T15:01:05Z</time>
      </trkpt>
      <trkpt lat="46.2905" lon="4.31687">
        <ele>383.7</ele>
        <time>2021-11-01T15:01:12Z</time>
      </trkpt>
      <trkpt lat="46.2905" lon="4.31691">
        <ele>382.74</ele>
        <time>2021-11-01T15:01:15Z</time>
      </trkpt>
      <trkpt lat="46.29049" lon="4.31695">
        <ele>382.74</ele>
        <time>2021-11-01T15:01:23Z</time>
      </trkpt>
      <trkpt lat="46.2905" lon="4.31696">
        <ele>382.74</ele>
        <time>2021-11-01T15:01:39Z</time>
      </trkpt>
      <trkpt lat="46.2905" lon="4.31697">
        <ele>382.74</ele>
        <time>2021-11-01T15:01:48Z</time>
      </trkpt>
      <trkpt lat="46.2905" lon="4.31697">
        <ele>382.74</ele>
        <time>2021-11-01T15:02:01Z</time>
      </trkpt>
      <trkpt lat="46.29051" lon="4.31696">
        <ele>382.74</ele>
        <time>2021-11-01T15:02:16Z</time>
      </trkpt>
      <trkpt lat="46.29051" lon="4.31701">
        <ele>382.74</ele>
        <time>2021-11-01T15:02:27Z</time>
      </trkpt>
      <trkpt lat="46.29053" lon="4.31709">
        <ele>382.74</ele>
        <time>2021-11-01T15:02:35Z</time>
      </trkpt>
      <trkpt lat="46.29054" lon="4.317">
        <ele>382.74</ele>
        <time>2021-11-01T15:02:43Z</time>
      </trkpt>
      <trkpt lat="46.2906" lon="4.31697">
        <ele>382.26</ele>
        <time>2021-11-01T15:02:50Z</time>
      </trkpt>
      <trkpt lat="46.29066" lon="4.31688">
        <ele>381.3</ele>
        <time>2021-11-01T15:03:01Z</time>
      </trkpt>
      <trkpt lat="46.29065" lon="4.31687">
        <ele>381.3</ele>
        <time>2021-11-01T15:03:09Z</time>
      </trkpt>
      <trkpt lat="46.29069" lon="4.31677">
        <ele>380.82</ele>
        <time>2021-11-01T15:03:18Z</time>
      </trkpt>
      <trkpt lat="46.29073" lon="4.31668">
        <ele>379.86</ele>
        <time>2021-11-01T15:03:27Z</time>
      </trkpt>
      <trkpt lat="46.29075" lon="4.3166">
        <ele>379.86</ele>
        <time>2021-11-01T15:03:33Z</time>
      </trkpt>
      <trkpt lat="46.29079" lon="4.31651">
        <ele>379.38</ele>
        <time>2021-11-01T15:03:42Z</time>
      </trkpt>
      <trkpt lat="46.29082" lon="4.31639">
        <ele>378.42</ele>
        <time>2021-11-01T15:03:51Z</time>
      </trkpt>
      <trkpt lat="46.29086" lon="4.31625">
        <ele>377.45</ele>
        <time>2021-11-01T15:04:01Z</time>
      </trkpt>
      <trkpt lat="46.29088" lon="4.31609">
        <ele>376.97</ele>
        <time>2021-11-01T15:04:09Z</time>
      </trkpt>
      <trkpt lat="46.29094" lon="4.31602">
        <ele>376.49</ele>
        <time>2021-11-01T15:04:18Z</time>
      </trkpt>
      <trkpt lat="46.29098" lon="4.31605">
        <ele>376.01</ele>
        <time>2021-11-01T15:04:26Z</time>
      </trkpt>
      <trkpt lat="46.29101" lon="4.31608">
        <ele>375.53</ele>
        <time>2021-11-01T15:04:37Z</time>
      </trkpt>
      <trkpt lat="46.29107" lon="4.31615">
        <ele>375.53</ele>
        <time>2021-11-01T15:04:46Z</time>
      </trkpt>
      <trkpt lat="46.29115" lon="4.31627">
        <ele>375.53</ele>
        <time>2021-11-01T15:04:57Z</time>
      </trkpt>
      <trkpt lat="46.29118" lon="4.31635">
        <ele>375.05</ele>
        <time>2021-11-01T15:05:05Z</time>
      </trkpt>
      <trkpt lat="46.2912" lon="4.31644">
        <ele>375.05</ele>
        <time>2021-11-01T15:05:12Z</time>
      </trkpt>
      <trkpt lat="46.29124" lon="4.31658">
        <ele>375.05</ele>
        <time>2021-11-01T15:05:22Z</time>
      </trkpt>
      <trkpt lat="46.29128" lon="4.31668">
        <ele>374.57</ele>
        <time>2021-11-01T15:05:31Z</time>
      </trkpt>
      <trkpt lat="46.29132" lon="4.31682">
        <ele>374.57</ele>
        <time>2021-11-01T15:05:40Z</time>
      </trkpt>
      <trkpt lat="46.29137" lon="4.31697">
        <ele>374.57</ele>
        <time>2021-11-01T15:05:49Z</time>
      </trkpt>
      <trkpt lat="46.29143" lon="4.3171">
        <ele>374.57</ele>
        <time>2021-11-01T15:05:57Z</time>
      </trkpt>
      <trkpt lat="46.2915" lon="4.31725">
        <ele>374.57</ele>
        <time>2021-11-01T15:06:08Z</time>
      </trkpt>
      <trkpt lat="46.29155" lon="4.31735">
        <ele>374.57</ele>
        <time>2021-11-01T15:06:17Z</time>
      </trkpt>
      <trkpt lat="46.29164" lon="4.31748">
        <ele>374.57</ele>
        <time>2021-11-01T15:06:28Z</time>
      </trkpt>
      <trkpt lat="46.29169" lon="4.31751">
        <ele>374.57</ele>
        <time>2021-11-01T15:06:37Z</time>
      </trkpt>
      <trkpt lat="46.29173" lon="4.3175">
        <ele>374.57</ele>
        <time>2021-11-01T15:06:43Z</time>
      </trkpt>
      <trkpt lat="46.29173" lon="4.31747">
        <ele>374.09</ele>
        <time>2021-11-01T15:06:50Z</time>
      </trkpt>
      <trkpt lat="46.29171" lon="4.31747">
        <ele>374.09</ele>
        <time>2021-11-01T15:06:59Z</time>
      </trkpt>
      <trkpt lat="46.29169" lon="4.31746">
        <ele>374.09</ele>
        <time>2021-11-01T15:07:08Z</time>
      </trkpt>
      <trkpt lat="46.29169" lon="4.31746">
        <ele>374.09</ele>
        <time>2021-11-01T15:07:21Z</time>
      </trkpt>
      <trkpt lat="46.2917" lon="4.3175">
        <ele>374.09</ele>
        <time>2021-11-01T15:07:34Z</time>
      </trkpt>
      <trkpt lat="46.29173" lon="4.31752">
        <ele>374.09</ele>
        <time>2021-11-01T15:07:43Z</time>
      </trkpt>
      <trkpt lat="46.29173" lon="4.31751">
        <ele>374.09</ele>
        <time>2021-11-01T15:08:01Z</time>
      </trkpt>
      <trkpt lat="46.29173" lon="4.31751">
        <ele>374.09</ele>
        <time>2021-11-01T15:08:20Z</time>
      </trkpt>
      <trkpt lat="46.29174" lon="4.31751">
        <ele>374.09</ele>
        <time>2021-11-01T15:08:35Z</time>
      </trkpt>
      <trkpt lat="46.29173" lon="4.31751">
        <ele>373.61</ele>
        <time>2021-11-01T15:08:53Z</time>
      </trkpt>
      <trkpt lat="46.29171" lon="4.31752">
        <ele>373.61</ele>
        <time>2021-11-01T15:09:12Z</time>
      </trkpt>
      <trkpt lat="46.29172" lon="4.31751">
        <ele>373.61</ele>
        <time>2021-11-01T15:09:30Z</time>
      </trkpt>
      <trkpt lat="46.29172" lon="4.31745">
        <ele>373.61</ele>
        <time>2021-11-01T15:09:49Z</time>
      </trkpt>
      <trkpt lat="46.29171" lon="4.31744">
        <ele>373.61</ele>
        <time>2021-11-01T15:10:07Z</time>
      </trkpt>
      <trkpt lat="46.29172" lon="4.31749">
        <ele>373.61</ele>
        <time>2021-11-01T15:10:28Z</time>
      </trkpt>
      <trkpt lat="46.29172" lon="4.31748">
        <ele>373.61</ele>
        <time>2021-11-01T15:10:45Z</time>
      </trkpt>
      <trkpt lat="46.29171" lon="4.31749">
        <ele>373.61</ele>
        <time>2021-11-01T15:11:02Z</time>
      </trkpt>
      <trkpt lat="46.29171" lon="4.31748">
        <ele>373.61</ele>
        <time>2021-11-01T15:11:19Z</time>
      </trkpt>
      <trkpt lat="46.29173" lon="4.31749">
        <ele>373.61</ele>
        <time>2021-11-01T15:11:36Z</time>
      </trkpt>
      <trkpt lat="46.29177" lon="4.3175">
        <ele>373.61</ele>
        <time>2021-11-01T15:11:51Z</time>
      </trkpt>
      <trkpt lat="46.29178" lon="4.3175">
        <ele>373.61</ele>
        <time>2021-11-01T15:12:08Z</time>
      </trkpt>
      <trkpt lat="46.29174" lon="4.31751">
        <ele>373.61</ele>
        <time>2021-11-01T15:12:25Z</time>
      </trkpt>
      <trkpt lat="46.29173" lon="4.3175">
        <ele>373.61</ele>
        <time>2021-11-01T15:12:40Z</time>
      </trkpt>
      <trkpt lat="46.29173" lon="4.31748">
        <ele>373.61</ele>
        <time>2021-11-01T15:13:00Z</time>
      </trkpt>
      <trkpt lat="46.29175" lon="4.31752">
        <ele>373.61</ele>
        <time>2021-11-01T15:13:20Z</time>
      </trkpt>
      <trkpt lat="46.29173" lon="4.3175">
        <ele>373.61</ele>
        <time>2021-11-01T15:13:40Z</time>
      </trkpt>
      <trkpt lat="46.29173" lon="4.31754">
        <ele>373.61</ele>
        <time>2021-11-01T15:13:59Z</time>
      </trkpt>
      <trkpt lat="46.29171" lon="4.31754">
        <ele>374.57</ele>
        <time>2021-11-01T15:14:18Z</time>
      </trkpt>
      <trkpt lat="46.29171" lon="4.31753">
        <ele>374.57</ele>
        <time>2021-11-01T15:14:38Z</time>
      </trkpt>
      <trkpt lat="46.29173" lon="4.31748">
        <ele>374.57</ele>
        <time>2021-11-01T15:14:48Z</time>
      </trkpt>
      <trkpt lat="46.29173" lon="4.31746">
        <ele>374.57</ele>
        <time>2021-11-01T15:14:59Z</time>
      </trkpt>
      <trkpt lat="46.29173" lon="4.31749">
        <ele>374.57</ele>
        <time>2021-11-01T15:15:11Z</time>
      </trkpt>
      <trkpt lat="46.29171" lon="4.31751">
        <ele>374.57</ele>
        <time>2021-11-01T15:15:28Z</time>
      </trkpt>
      <trkpt lat="46.29173" lon="4.31749">
        <ele>374.57</ele>
        <time>2021-11-01T15:15:45Z</time>
      </trkpt>
      <trkpt lat="46.29175" lon="4.31749">
        <ele>374.57</ele>
        <time>2021-11-01T15:16:04Z</time>
      </trkpt>
      <trkpt lat="46.29172" lon="4.31749">
        <ele>374.57</ele>
        <time>2021-11-01T15:16:20Z</time>
      </trkpt>
      <trkpt lat="46.29172" lon="4.31749">
        <ele>374.57</ele>
        <time>2021-11-01T15:16:41Z</time>
      </trkpt>
      <trkpt lat="46.29174" lon="4.31752">
        <ele>374.57</ele>
        <time>2021-11-01T15:17:05Z</time>
      </trkpt>
      <trkpt lat="46.29174" lon="4.31753">
        <ele>374.57</ele>
        <time>2021-11-01T15:17:18Z</time>
      </trkpt>
      <trkpt lat="46.29174" lon="4.31753">
        <ele>374.57</ele>
        <time>2021-11-01T15:17:35Z</time>
      </trkpt>
      <trkpt lat="46.29175" lon="4.31754">
        <ele>374.57</ele>
        <time>2021-11-01T15:17:51Z</time>
      </trkpt>
      <trkpt lat="46.29172" lon="4.31753">
        <ele>374.57</ele>
        <time>2021-11-01T15:18:11Z</time>
      </trkpt>
      <trkpt lat="46.29176" lon="4.31754">
        <ele>374.57</ele>
        <time>2021-11-01T15:18:33Z</time>
      </trkpt>
      <trkpt lat="46.29178" lon="4.31755">
        <ele>374.57</ele>
        <time>2021-11-01T15:18:53Z</time>
      </trkpt>
      <trkpt lat="46.29177" lon="4.31754">
        <ele>375.05</ele>
        <time>2021-11-01T15:19:02Z</time>
      </trkpt>
      <trkpt lat="46.29179" lon="4.31751">
        <ele>375.05</ele>
        <time>2021-11-01T15:19:17Z</time>
      </trkpt>
      <trkpt lat="46.29183" lon="4.3176">
        <ele>375.05</ele>
        <time>2021-11-01T15:19:29Z</time>
      </trkpt>
      <trkpt lat="46.29188" lon="4.31767">
        <ele>375.05</ele>
        <time>2021-11-01T15:19:36Z</time>
      </trkpt>
      <trkpt lat="46.29195" lon="4.31774">
        <ele>375.05</ele>
        <time>2021-11-01T15:19:45Z</time>
      </trkpt>
      <trkpt lat="46.292" lon="4.31779">
        <ele>375.05</ele>
        <time>2021-11-01T15:19:53Z</time>
      </trkpt>
      <trkpt lat="46.29209" lon="4.31786">
        <ele>375.05</ele>
        <time>2021-11-01T15:20:02Z</time>
      </trkpt>
      <trkpt lat="46.29219" lon="4.31794">
        <ele>375.05</ele>
        <time>2021-11-01T15:20:11Z</time>
      </trkpt>
      <trkpt lat="46.29227" lon="4.31798">
        <ele>375.05</ele>
        <time>2021-11-01T15:20:19Z</time>
      </trkpt>
      <trkpt lat="46.29233" lon="4.31803">
        <ele>375.05</ele>
        <time>2021-11-01T15:20:25Z</time>
      </trkpt>
      <trkpt lat="46.29242" lon="4.3181">
        <ele>375.05</ele>
        <time>2021-11-01T15:20:35Z</time>
      </trkpt>
      <trkpt lat="46.29249" lon="4.31816">
        <ele>375.05</ele>
        <time>2021-11-01T15:20:44Z</time>
      </trkpt>
      <trkpt lat="46.29255" lon="4.31821">
        <ele>375.05</ele>
        <time>2021-11-01T15:20:53Z</time>
      </trkpt>
      <trkpt lat="46.29263" lon="4.31826">
        <ele>375.05</ele>
        <time>2021-11-01T15:21:03Z</time>
      </trkpt>
      <trkpt lat="46.29269" lon="4.3183">
        <ele>375.05</ele>
        <time>2021-11-01T15:21:11Z</time>
      </trkpt>
      <trkpt lat="46.29277" lon="4.31832">
        <ele>375.05</ele>
        <time>2021-11-01T15:21:20Z</time>
      </trkpt>
      <trkpt lat="46.29283" lon="4.31834">
        <ele>375.05</ele>
        <time>2021-11-01T15:21:29Z</time>
      </trkpt>
      <trkpt lat="46.29291" lon="4.31836">
        <ele>375.05</ele>
        <time>2021-11-01T15:21:37Z</time>
      </trkpt>
      <trkpt lat="46.293" lon="4.31839">
        <ele>375.05</ele>
        <time>2021-11-01T15:21:48Z</time>
      </trkpt>
      <trkpt lat="46.2931" lon="4.31842">
        <ele>375.05</ele>
        <time>2021-11-01T15:22:01Z</time>
      </trkpt>
      <trkpt lat="46.29315" lon="4.31849">
        <ele>375.05</ele>
        <time>2021-11-01T15:22:10Z</time>
      </trkpt>
      <trkpt lat="46.29319" lon="4.31853">
        <ele>375.05</ele>
        <time>2021-11-01T15:22:17Z</time>
      </trkpt>
      <trkpt lat="46.29325" lon="4.31856">
        <ele>375.05</ele>
        <time>2021-11-01T15:22:25Z</time>
      </trkpt>
      <trkpt lat="46.29332" lon="4.31859">
        <ele>374.57</ele>
        <time>2021-11-01T15:22:35Z</time>
      </trkpt>
      <trkpt lat="46.29342" lon="4.31863">
        <ele>374.57</ele>
        <time>2021-11-01T15:22:44Z</time>
      </trkpt>
      <trkpt lat="46.29345" lon="4.31864">
        <ele>374.57</ele>
        <time>2021-11-01T15:22:53Z</time>
      </trkpt>
      <trkpt lat="46.29352" lon="4.31868">
        <ele>374.57</ele>
        <time>2021-11-01T15:23:01Z</time>
      </trkpt>
      <trkpt lat="46.2936" lon="4.31872">
        <ele>374.57</ele>
        <time>2021-11-01T15:23:10Z</time>
      </trkpt>
      <trkpt lat="46.29368" lon="4.31876">
        <ele>374.57</ele>
        <time>2021-11-01T15:23:19Z</time>
      </trkpt>
      <trkpt lat="46.29378" lon="4.3188">
        <ele>375.05</ele>
        <time>2021-11-01T15:23:28Z</time>
      </trkpt>
      <trkpt lat="46.29387" lon="4.31881">
        <ele>375.05</ele>
        <time>2021-11-01T15:23:37Z</time>
      </trkpt>
      <trkpt lat="46.29388" lon="4.31881">
        <ele>375.05</ele>
        <time>2021-11-01T15:23:38Z</time>
      </trkpt>
      <trkpt lat="46.29398" lon="4.31883">
        <ele>376.01</ele>
        <time>2021-11-01T15:23:48Z</time>
      </trkpt>
      <trkpt lat="46.2941" lon="4.31884">
        <ele>376.49</ele>
        <time>2021-11-01T15:23:58Z</time>
      </trkpt>
      <trkpt lat="46.29421" lon="4.31888">
        <ele>376.49</ele>
        <time>2021-11-01T15:24:07Z</time>
      </trkpt>
      <trkpt lat="46.29422" lon="4.31889">
        <ele>376.49</ele>
        <time>2021-11-01T15:24:15Z</time>
      </trkpt>
      <trkpt lat="46.29425" lon="4.31889">
        <ele>376.49</ele>
        <time>2021-11-01T15:24:27Z</time>
      </trkpt>
      <trkpt lat="46.29433" lon="4.31891">
        <ele>376.49</ele>
        <time>2021-11-01T15:24:36Z</time>
      </trkpt>
      <trkpt lat="46.29442" lon="4.31892">
        <ele>376.49</ele>
        <time>2021-11-01T15:24:45Z</time>
      </trkpt>
      <trkpt lat="46.29452" lon="4.31894">
        <ele>376.49</ele>
        <time>2021-11-01T15:24:54Z</time>
      </trkpt>
      <trkpt lat="46.2946" lon="4.31897">
        <ele>376.97</ele>
        <time>2021-11-01T15:25:04Z</time>
      </trkpt>
      <trkpt lat="46.2947" lon="4.31898">
        <ele>376.97</ele>
        <time>2021-11-01T15:25:13Z</time>
      </trkpt>
      <trkpt lat="46.29475" lon="4.31899">
        <ele>376.97</ele>
        <time>2021-11-01T15:25:22Z</time>
      </trkpt>
      <trkpt lat="46.29479" lon="4.31907">
        <ele>376.97</ele>
        <time>2021-11-01T15:25:31Z</time>
      </trkpt>
      <trkpt lat="46.2948" lon="4.3192">
        <ele>376.97</ele>
        <time>2021-11-01T15:25:40Z</time>
      </trkpt>
      <trkpt lat="46.29479" lon="4.31933">
        <ele>377.45</ele>
        <time>2021-11-01T15:25:49Z</time>
      </trkpt>
      <trkpt lat="46.29478" lon="4.3195">
        <ele>377.94</ele>
        <time>2021-11-01T15:25:59Z</time>
      </trkpt>
      <trkpt lat="46.29478" lon="4.31952">
        <ele>377.94</ele>
        <time>2021-11-01T15:26:08Z</time>
      </trkpt>
      <trkpt lat="46.29477" lon="4.31954">
        <ele>377.94</ele>
        <time>2021-11-01T15:26:17Z</time>
      </trkpt>
      <trkpt lat="46.29477" lon="4.31954">
        <ele>377.94</ele>
        <time>2021-11-01T15:26:27Z</time>
      </trkpt>
      <trkpt lat="46.29477" lon="4.31953">
        <ele>378.9</ele>
        <time>2021-11-01T15:26:35Z</time>
      </trkpt>
      <trkpt lat="46.29477" lon="4.31952">
        <ele>378.9</ele>
        <time>2021-11-01T15:26:45Z</time>
      </trkpt>
      <trkpt lat="46.29477" lon="4.31952">
        <ele>378.42</ele>
        <time>2021-11-01T15:26:59Z</time>
      </trkpt>
      <trkpt lat="46.29477" lon="4.31951">
        <ele>378.42</ele>
        <time>2021-11-01T15:27:22Z</time>
      </trkpt>
      <trkpt lat="46.29477" lon="4.31949">
        <ele>378.42</ele>
        <time>2021-11-01T15:27:42Z</time>
      </trkpt>
      <trkpt lat="46.29476" lon="4.31951">
        <ele>378.9</ele>
        <time>2021-11-01T15:27:53Z</time>
      </trkpt>
      <trkpt lat="46.29476" lon="4.3195">
        <ele>378.42</ele>
        <time>2021-11-01T15:28:07Z</time>
      </trkpt>
      <trkpt lat="46.29478" lon="4.31955">
        <ele>378.42</ele>
        <time>2021-11-01T15:28:14Z</time>
      </trkpt>
      <trkpt lat="46.29481" lon="4.31954">
        <ele>378.42</ele>
        <time>2021-11-01T15:28:18Z</time>
      </trkpt>
      <trkpt lat="46.29482" lon="4.31947">
        <ele>378.42</ele>
        <time>2021-11-01T15:28:23Z</time>
      </trkpt>
      <trkpt lat="46.2948" lon="4.3194">
        <ele>378.42</ele>
        <time>2021-11-01T15:28:27Z</time>
      </trkpt>
      <trkpt lat="46.29479" lon="4.31931">
        <ele>377.45</ele>
        <time>2021-11-01T15:28:35Z</time>
      </trkpt>
      <trkpt lat="46.29481" lon="4.3193">
        <ele>377.45</ele>
        <time>2021-11-01T15:28:42Z</time>
      </trkpt>
      <trkpt lat="46.29481" lon="4.3193">
        <ele>377.45</ele>
        <time>2021-11-01T15:28:59Z</time>
      </trkpt>
      <trkpt lat="46.29481" lon="4.31929">
        <ele>377.45</ele>
        <time>2021-11-01T15:29:08Z</time>
      </trkpt>
      <trkpt lat="46.2948" lon="4.31926">
        <ele>377.45</ele>
        <time>2021-11-01T15:29:24Z</time>
      </trkpt>
      <trkpt lat="46.29479" lon="4.31927">
        <ele>377.45</ele>
        <time>2021-11-01T15:29:39Z</time>
      </trkpt>
      <trkpt lat="46.29479" lon="4.31928">
        <ele>377.45</ele>
        <time>2021-11-01T15:29:58Z</time>
      </trkpt>
      <trkpt lat="46.29479" lon="4.31928">
        <ele>377.45</ele>
        <time>2021-11-01T15:30:15Z</time>
      </trkpt>
      <trkpt lat="46.29481" lon="4.3193">
        <ele>377.45</ele>
        <time>2021-11-01T15:30:34Z</time>
      </trkpt>
      <trkpt lat="46.29481" lon="4.31927">
        <ele>377.45</ele>
        <time>2021-11-01T15:30:53Z</time>
      </trkpt>
      <trkpt lat="46.2948" lon="4.31929">
        <ele>377.45</ele>
        <time>2021-11-01T15:31:08Z</time>
      </trkpt>
      <trkpt lat="46.29478" lon="4.31929">
        <ele>377.45</ele>
        <time>2021-11-01T15:31:25Z</time>
      </trkpt>
      <trkpt lat="46.29477" lon="4.3193">
        <ele>377.45</ele>
        <time>2021-11-01T15:31:42Z</time>
      </trkpt>
      <trkpt lat="46.29478" lon="4.31928">
        <ele>377.45</ele>
        <time>2021-11-01T15:32:02Z</time>
      </trkpt>
      <trkpt lat="46.29478" lon="4.31926">
        <ele>377.45</ele>
        <time>2021-11-01T15:32:14Z</time>
      </trkpt>
      <trkpt lat="46.29477" lon="4.31926">
        <ele>377.45</ele>
        <time>2021-11-01T15:32:33Z</time>
      </trkpt>
      <trkpt lat="46.29478" lon="4.31925">
        <ele>377.45</ele>
        <time>2021-11-01T15:32:49Z</time>
      </trkpt>
      <trkpt lat="46.29479" lon="4.31927">
        <ele>377.45</ele>
        <time>2021-11-01T15:33:13Z</time>
      </trkpt>
      <trkpt lat="46.29478" lon="4.31929">
        <ele>377.45</ele>
        <time>2021-11-01T15:33:32Z</time>
      </trkpt>
      <trkpt lat="46.29478" lon="4.31927">
        <ele>377.45</ele>
        <time>2021-11-01T15:33:45Z</time>
      </trkpt>
      <trkpt lat="46.29479" lon="4.31925">
        <ele>377.45</ele>
        <time>2021-11-01T15:34:05Z</time>
      </trkpt>
      <trkpt lat="46.29478" lon="4.31926">
        <ele>377.45</ele>
        <time>2021-11-01T15:34:20Z</time>
      </trkpt>
      <trkpt lat="46.29478" lon="4.31925">
        <ele>377.45</ele>
        <time>2021-11-01T15:34:32Z</time>
      </trkpt>
      <trkpt lat="46.29479" lon="4.31921">
        <ele>377.45</ele>
        <time>2021-11-01T15:34:41Z</time>
      </trkpt>
      <trkpt lat="46.2948" lon="4.31908">
        <ele>377.45</ele>
        <time>2021-11-01T15:34:50Z</time>
      </trkpt>
      <trkpt lat="46.29481" lon="4.31901">
        <ele>377.94</ele>
        <time>2021-11-01T15:34:58Z</time>
      </trkpt>
      <trkpt lat="46.29482" lon="4.31898">
        <ele>377.94</ele>
        <time>2021-11-01T15:35:13Z</time>
      </trkpt>
      <trkpt lat="46.29478" lon="4.31897">
        <ele>377.94</ele>
        <time>2021-11-01T15:35:23Z</time>
      </trkpt>
      <trkpt lat="46.29478" lon="4.31897">
        <ele>377.94</ele>
        <time>2021-11-01T15:35:30Z</time>
      </trkpt>
      <trkpt lat="46.29478" lon="4.31898">
        <ele>377.94</ele>
        <time>2021-11-01T15:35:46Z</time>
      </trkpt>
      <trkpt lat="46.29477" lon="4.319">
        <ele>377.94</ele>
        <time>2021-11-01T15:36:01Z</time>
      </trkpt>
      <trkpt lat="46.29476" lon="4.319">
        <ele>377.94</ele>
        <time>2021-11-01T15:36:20Z</time>
      </trkpt>
      <trkpt lat="46.29476" lon="4.31898">
        <ele>377.94</ele>
        <time>2021-11-01T15:36:40Z</time>
      </trkpt>
      <trkpt lat="46.29476" lon="4.31898">
        <ele>377.94</ele>
        <time>2021-11-01T15:36:56Z</time>
      </trkpt>
      <trkpt lat="46.29476" lon="4.31896">
        <ele>377.94</ele>
        <time>2021-11-01T15:37:13Z</time>
      </trkpt>
      <trkpt lat="46.29475" lon="4.31892">
        <ele>377.94</ele>
        <time>2021-11-01T15:37:33Z</time>
      </trkpt>
      <trkpt lat="46.29477" lon="4.31897">
        <ele>377.94</ele>
        <time>2021-11-01T15:37:47Z</time>
      </trkpt>
      <trkpt lat="46.29477" lon="4.31897">
        <ele>378.42</ele>
        <time>2021-11-01T15:38:11Z</time>
      </trkpt>
      <trkpt lat="46.29476" lon="4.31894">
        <ele>378.42</ele>
        <time>2021-11-01T15:38:29Z</time>
      </trkpt>
      <trkpt lat="46.29477" lon="4.31896">
        <ele>378.42</ele>
        <time>2021-11-01T15:38:49Z</time>
      </trkpt>
      <trkpt lat="46.29477" lon="4.31897">
        <ele>378.42</ele>
        <time>2021-11-01T15:39:09Z</time>
      </trkpt>
      <trkpt lat="46.29475" lon="4.31895">
        <ele>378.42</ele>
        <time>2021-11-01T15:39:32Z</time>
      </trkpt>
      <trkpt lat="46.29476" lon="4.31896">
        <ele>378.42</ele>
        <time>2021-11-01T15:39:53Z</time>
      </trkpt>
      <trkpt lat="46.29477" lon="4.31899">
        <ele>378.42</ele>
        <time>2021-11-01T15:40:15Z</time>
      </trkpt>
      <trkpt lat="46.29478" lon="4.31897">
        <ele>378.42</ele>
        <time>2021-11-01T15:40:33Z</time>
      </trkpt>
      <trkpt lat="46.29476" lon="4.31893">
        <ele>378.42</ele>
        <time>2021-11-01T15:40:49Z</time>
      </trkpt>
      <trkpt lat="46.29475" lon="4.31896">
        <ele>379.38</ele>
        <time>2021-11-01T15:41:00Z</time>
      </trkpt>
      <trkpt lat="46.29475" lon="4.31898">
        <ele>379.38</ele>
        <time>2021-11-01T15:41:03Z</time>
      </trkpt>
      <trkpt lat="46.29473" lon="4.31897">
        <ele>378.9</ele>
        <time>2021-11-01T15:41:07Z</time>
      </trkpt>
      <trkpt lat="46.29468" lon="4.3189">
        <ele>379.38</ele>
        <time>2021-11-01T15:41:15Z</time>
      </trkpt>
      <trkpt lat="46.29463" lon="4.31886">
        <ele>379.38</ele>
        <time>2021-11-01T15:41:22Z</time>
      </trkpt>
      <trkpt lat="46.29452" lon="4.31886">
        <ele>377.94</ele>
        <time>2021-11-01T15:41:33Z</time>
      </trkpt>
      <trkpt lat="46.29447" lon="4.31889">
        <ele>377.94</ele>
        <time>2021-11-01T15:41:41Z</time>
      </trkpt>
      <trkpt lat="46.29446" lon="4.3189">
        <ele>377.94</ele>
        <time>2021-11-01T15:41:55Z</time>
      </trkpt>
      <trkpt lat="46.29444" lon="4.31892">
        <ele>377.94</ele>
        <time>2021-11-01T15:42:08Z</time>
      </trkpt>
      <trkpt lat="46.29435" lon="4.31892">
        <ele>377.45</ele>
        <time>2021-11-01T15:42:16Z</time>
      </trkpt>
      <trkpt lat="46.29422" lon="4.31888">
        <ele>377.45</ele>
        <time>2021-11-01T15:42:26Z</time>
      </trkpt>
      <trkpt lat="46.29413" lon="4.31885">
        <ele>377.45</ele>
        <time>2021-11-01T15:42:35Z</time>
      </trkpt>
      <trkpt lat="46.294" lon="4.31885">
        <ele>377.45</ele>
        <time>2021-11-01T15:42:46Z</time>
      </trkpt>
      <trkpt lat="46.2939" lon="4.31882">
        <ele>376.49</ele>
        <time>2021-11-01T15:42:56Z</time>
      </trkpt>
      <trkpt lat="46.29382" lon="4.31881">
        <ele>376.49</ele>
        <time>2021-11-01T15:43:05Z</time>
      </trkpt>
      <trkpt lat="46.29369" lon="4.31876">
        <ele>376.01</ele>
        <time>2021-11-01T15:43:15Z</time>
      </trkpt>
      <trkpt lat="46.29357" lon="4.31873">
        <ele>376.01</ele>
        <time>2021-11-01T15:43:25Z</time>
      </trkpt>
      <trkpt lat="46.29346" lon="4.31866">
        <ele>376.01</ele>
        <time>2021-11-01T15:43:35Z</time>
      </trkpt>
      <trkpt lat="46.29335" lon="4.31861">
        <ele>375.53</ele>
        <time>2021-11-01T15:43:45Z</time>
      </trkpt>
      <trkpt lat="46.29322" lon="4.31854">
        <ele>375.53</ele>
        <time>2021-11-01T15:43:55Z</time>
      </trkpt>
      <trkpt lat="46.29308" lon="4.31847">
        <ele>375.53</ele>
        <time>2021-11-01T15:44:04Z</time>
      </trkpt>
      <trkpt lat="46.29294" lon="4.31839">
        <ele>375.53</ele>
        <time>2021-11-01T15:44:15Z</time>
      </trkpt>
      <trkpt lat="46.29284" lon="4.31832">
        <ele>375.53</ele>
        <time>2021-11-01T15:44:25Z</time>
      </trkpt>
      <trkpt lat="46.29272" lon="4.31826">
        <ele>375.53</ele>
        <time>2021-11-01T15:44:34Z</time>
      </trkpt>
      <trkpt lat="46.29261" lon="4.31819">
        <ele>375.53</ele>
        <time>2021-11-01T15:44:45Z</time>
      </trkpt>
      <trkpt lat="46.2925" lon="4.31811">
        <ele>375.53</ele>
        <time>2021-11-01T15:44:54Z</time>
      </trkpt>
      <trkpt lat="46.29239" lon="4.31803">
        <ele>376.01</ele>
        <time>2021-11-01T15:45:04Z</time>
      </trkpt>
      <trkpt lat="46.29229" lon="4.31796">
        <ele>376.01</ele>
        <time>2021-11-01T15:45:13Z</time>
      </trkpt>
      <trkpt lat="46.29216" lon="4.31788">
        <ele>376.01</ele>
        <time>2021-11-01T15:45:25Z</time>
      </trkpt>
      <trkpt lat="46.292" lon="4.31777">
        <ele>376.01</ele>
        <time>2021-11-01T15:45:37Z</time>
      </trkpt>
      <trkpt lat="46.2919" lon="4.3177">
        <ele>376.01</ele>
        <time>2021-11-01T15:45:49Z</time>
      </trkpt>
      <trkpt lat="46.29176" lon="4.31756">
        <ele>376.01</ele>
        <time>2021-11-01T15:46:00Z</time>
      </trkpt>
      <trkpt lat="46.29166" lon="4.31744">
        <ele>376.01</ele>
        <time>2021-11-01T15:46:09Z</time>
      </trkpt>
      <trkpt lat="46.29157" lon="4.31729">
        <ele>376.01</ele>
        <time>2021-11-01T15:46:19Z</time>
      </trkpt>
      <trkpt lat="46.2915" lon="4.31717">
        <ele>376.01</ele>
        <time>2021-11-01T15:46:28Z</time>
      </trkpt>
      <trkpt lat="46.29142" lon="4.31701">
        <ele>376.01</ele>
        <time>2021-11-01T15:46:39Z</time>
      </trkpt>
      <trkpt lat="46.29136" lon="4.31683">
        <ele>376.01</ele>
        <time>2021-11-01T15:46:50Z</time>
      </trkpt>
      <trkpt lat="46.2913" lon="4.31665">
        <ele>376.01</ele>
        <time>2021-11-01T15:47:00Z</time>
      </trkpt>
      <trkpt lat="46.29123" lon="4.31644">
        <ele>376.01</ele>
        <time>2021-11-01T15:47:11Z</time>
      </trkpt>
      <trkpt lat="46.29117" lon="4.31625">
        <ele>376.01</ele>
        <time>2021-11-01T15:47:21Z</time>
      </trkpt>
      <trkpt lat="46.29113" lon="4.31612">
        <ele>376.01</ele>
        <time>2021-11-01T15:47:29Z</time>
      </trkpt>
      <trkpt lat="46.29108" lon="4.31596">
        <ele>376.01</ele>
        <time>2021-11-01T15:47:39Z</time>
      </trkpt>
      <trkpt lat="46.29104" lon="4.31578">
        <ele>376.01</ele>
        <time>2021-11-01T15:47:49Z</time>
      </trkpt>
      <trkpt lat="46.29101" lon="4.31559">
        <ele>376.01</ele>
        <time>2021-11-01T15:47:58Z</time>
      </trkpt>
      <trkpt lat="46.29098" lon="4.31537">
        <ele>376.01</ele>
        <time>2021-11-01T15:48:09Z</time>
      </trkpt>
      <trkpt lat="46.29098" lon="4.31522">
        <ele>376.01</ele>
        <time>2021-11-01T15:48:17Z</time>
      </trkpt>
      <trkpt lat="46.29098" lon="4.31505">
        <ele>376.01</ele>
        <time>2021-11-01T15:48:26Z</time>
      </trkpt>
      <trkpt lat="46.29099" lon="4.31492">
        <ele>376.01</ele>
        <time>2021-11-01T15:48:34Z</time>
      </trkpt>
      <trkpt lat="46.29099" lon="4.31488">
        <ele>376.01</ele>
        <time>2021-11-01T15:48:36Z</time>
      </trkpt>
      <trkpt lat="46.29099" lon="4.31481">
        <ele>376.01</ele>
        <time>2021-11-01T15:48:40Z</time>
      </trkpt>
      <trkpt lat="46.291" lon="4.31461">
        <ele>376.01</ele>
        <time>2021-11-01T15:48:51Z</time>
      </trkpt>
      <trkpt lat="46.29101" lon="4.31442">
        <ele>376.01</ele>
        <time>2021-11-01T15:49:02Z</time>
      </trkpt>
      <trkpt lat="46.29102" lon="4.31421">
        <ele>376.01</ele>
        <time>2021-11-01T15:49:11Z</time>
      </trkpt>
      <trkpt lat="46.29104" lon="4.314">
        <ele>376.01</ele>
        <time>2021-11-01T15:49:21Z</time>
      </trkpt>
      <trkpt lat="46.29105" lon="4.31383">
        <ele>376.01</ele>
        <time>2021-11-01T15:49:30Z</time>
      </trkpt>
      <trkpt lat="46.29106" lon="4.31373">
        <ele>375.53</ele>
        <time>2021-11-01T15:49:35Z</time>
      </trkpt>
      <trkpt lat="46.29107" lon="4.31356">
        <ele>375.53</ele>
        <time>2021-11-01T15:49:44Z</time>
      </trkpt>
      <trkpt lat="46.29109" lon="4.31342">
        <ele>375.53</ele>
        <time>2021-11-01T15:49:53Z</time>
      </trkpt>
      <trkpt lat="46.29109" lon="4.31326">
        <ele>375.53</ele>
        <time>2021-11-01T15:50:01Z</time>
      </trkpt>
      <trkpt lat="46.29111" lon="4.31311">
        <ele>375.53</ele>
        <time>2021-11-01T15:50:11Z</time>
      </trkpt>
      <trkpt lat="46.29111" lon="4.31294">
        <ele>375.53</ele>
        <time>2021-11-01T15:50:20Z</time>
      </trkpt>
      <trkpt lat="46.29114" lon="4.31268">
        <ele>375.05</ele>
        <time>2021-11-01T15:50:31Z</time>
      </trkpt>
      <trkpt lat="46.29117" lon="4.31248">
        <ele>375.05</ele>
        <time>2021-11-01T15:50:41Z</time>
      </trkpt>
      <trkpt lat="46.29119" lon="4.31229">
        <ele>375.05</ele>
        <time>2021-11-01T15:50:51Z</time>
      </trkpt>
      <trkpt lat="46.29122" lon="4.3121">
        <ele>375.05</ele>
        <time>2021-11-01T15:51:02Z</time>
      </trkpt>
      <trkpt lat="46.29125" lon="4.31191">
        <ele>375.05</ele>
        <time>2021-11-01T15:51:11Z</time>
      </trkpt>
      <trkpt lat="46.29128" lon="4.31176">
        <ele>375.05</ele>
        <time>2021-11-01T15:51:21Z</time>
      </trkpt>
      <trkpt lat="46.29131" lon="4.31157">
        <ele>375.05</ele>
        <time>2021-11-01T15:51:31Z</time>
      </trkpt>
      <trkpt lat="46.29136" lon="4.31134">
        <ele>374.57</ele>
        <time>2021-11-01T15:51:41Z</time>
      </trkpt>
      <trkpt lat="46.29139" lon="4.31115">
        <ele>374.57</ele>
        <time>2021-11-01T15:51:51Z</time>
      </trkpt>
      <trkpt lat="46.29145" lon="4.31095">
        <ele>374.57</ele>
        <time>2021-11-01T15:52:02Z</time>
      </trkpt>
      <trkpt lat="46.29149" lon="4.31072">
        <ele>374.57</ele>
        <time>2021-11-01T15:52:12Z</time>
      </trkpt>
      <trkpt lat="46.29154" lon="4.31055">
        <ele>374.57</ele>
        <time>2021-11-01T15:52:22Z</time>
      </trkpt>
      <trkpt lat="46.29162" lon="4.31039">
        <ele>374.57</ele>
        <time>2021-11-01T15:52:34Z</time>
      </trkpt>
      <trkpt lat="46.29166" lon="4.3103">
        <ele>374.57</ele>
        <time>2021-11-01T15:52:41Z</time>
      </trkpt>
      <trkpt lat="46.29172" lon="4.31015">
        <ele>374.57</ele>
        <time>2021-11-01T15:52:50Z</time>
      </trkpt>
      <trkpt lat="46.29172" lon="4.31015">
        <ele>374.57</ele>
        <time>2021-11-01T15:52:51Z</time>
      </trkpt>
      <trkpt lat="46.29179" lon="4.30998">
        <ele>374.57</ele>
        <time>2021-11-01T15:53:01Z</time>
      </trkpt>
      <trkpt lat="46.29187" lon="4.3098">
        <ele>374.57</ele>
        <time>2021-11-01T15:53:12Z</time>
      </trkpt>
      <trkpt lat="46.29191" lon="4.3097">
        <ele>374.09</ele>
        <time>2021-11-01T15:53:18Z</time>
      </trkpt>
      <trkpt lat="46.292" lon="4.30946">
        <ele>374.09</ele>
        <time>2021-11-01T15:53:29Z</time>
      </trkpt>
      <trkpt lat="46.29201" lon="4.30944">
        <ele>374.09</ele>
        <time>2021-11-01T15:53:30Z</time>
      </trkpt>
      <trkpt lat="46.29211" lon="4.30922">
        <ele>374.09</ele>
        <time>2021-11-01T15:53:42Z</time>
      </trkpt>
      <trkpt lat="46.29215" lon="4.30911">
        <ele>374.09</ele>
        <time>2021-11-01T15:53:50Z</time>
      </trkpt>
      <trkpt lat="46.29225" lon="4.3089">
        <ele>374.09</ele>
        <time>2021-11-01T15:54:03Z</time>
      </trkpt>
      <trkpt lat="46.29233" lon="4.30876">
        <ele>374.09</ele>
        <time>2021-11-01T15:54:14Z</time>
      </trkpt>
      <trkpt lat="46.29239" lon="4.3086">
        <ele>374.09</ele>
        <time>2021-11-01T15:54:23Z</time>
      </trkpt>
      <trkpt lat="46.29245" lon="4.30846">
        <ele>374.09</ele>
        <time>2021-11-01T15:54:33Z</time>
      </trkpt>
      <trkpt lat="46.29245" lon="4.30846">
        <ele>374.09</ele>
        <time>2021-11-01T15:54:40Z</time>
      </trkpt>
      <trkpt lat="46.29246" lon="4.30849">
        <ele>374.09</ele>
        <time>2021-11-01T15:54:50Z</time>
      </trkpt>
      <trkpt lat="46.29245" lon="4.30847">
        <ele>374.09</ele>
        <time>2021-11-01T15:55:04Z</time>
      </trkpt>
      <trkpt lat="46.29244" lon="4.30848">
        <ele>374.09</ele>
        <time>2021-11-01T15:55:13Z</time>
      </trkpt>
      <trkpt lat="46.29247" lon="4.3085">
        <ele>374.09</ele>
        <time>2021-11-01T15:55:26Z</time>
      </trkpt>
      <trkpt lat="46.29245" lon="4.30849">
        <ele>374.09</ele>
        <time>2021-11-01T15:55:41Z</time>
      </trkpt>
      <trkpt lat="46.29242" lon="4.30851">
        <ele>374.09</ele>
        <time>2021-11-01T15:56:01Z</time>
      </trkpt>
      <trkpt lat="46.29242" lon="4.30849">
        <ele>374.09</ele>
        <time>2021-11-01T15:56:25Z</time>
      </trkpt>
      <trkpt lat="46.29244" lon="4.30849">
        <ele>374.09</ele>
        <time>2021-11-01T15:56:46Z</time>
      </trkpt>
      <trkpt lat="46.29247" lon="4.30849">
        <ele>374.09</ele>
        <time>2021-11-01T15:57:05Z</time>
      </trkpt>
      <trkpt lat="46.29247" lon="4.30844">
        <ele>374.09</ele>
        <time>2021-11-01T15:57:17Z</time>
      </trkpt>
      <trkpt lat="46.2925" lon="4.30842">
        <ele>374.09</ele>
        <time>2021-11-01T15:57:25Z</time>
      </trkpt>
      <trkpt lat="46.29249" lon="4.30839">
        <ele>374.09</ele>
        <time>2021-11-01T15:57:39Z</time>
      </trkpt>
      <trkpt lat="46.29247" lon="4.30845">
        <ele>374.09</ele>
        <time>2021-11-01T15:57:48Z</time>
      </trkpt>
      <trkpt lat="46.29246" lon="4.30847">
        <ele>374.09</ele>
        <time>2021-11-01T15:57:59Z</time>
      </trkpt>
      <trkpt lat="46.29245" lon="4.30852">
        <ele>374.09</ele>
        <time>2021-11-01T15:58:14Z</time>
      </trkpt>
      <trkpt lat="46.29247" lon="4.30845">
        <ele>374.09</ele>
        <time>2021-11-01T15:58:27Z</time>
      </trkpt>
      <trkpt lat="46.29248" lon="4.30841">
        <ele>374.57</ele>
        <time>2021-11-01T15:58:36Z</time>
      </trkpt>
      <trkpt lat="46.29247" lon="4.30843">
        <ele>374.57</ele>
        <time>2021-11-01T15:58:48Z</time>
      </trkpt>
      <trkpt lat="46.29246" lon="4.30844">
        <ele>374.57</ele>
        <time>2021-11-01T15:58:56Z</time>
      </trkpt>
      <trkpt lat="46.29247" lon="4.30844">
        <ele>374.57</ele>
        <time>2021-11-01T15:59:06Z</time>
      </trkpt>
      <trkpt lat="46.29248" lon="4.30845">
        <ele>374.57</ele>
        <time>2021-11-01T15:59:17Z</time>
      </trkpt>
      <trkpt lat="46.29247" lon="4.30847">
        <ele>374.57</ele>
        <time>2021-11-01T15:59:28Z</time>
      </trkpt>
      <trkpt lat="46.29249" lon="4.30845">
        <ele>374.57</ele>
        <time>2021-11-01T15:59:38Z</time>
      </trkpt>
      <trkpt lat="46.29249" lon="4.3084">
        <ele>374.57</ele>
        <time>2021-11-01T15:59:45Z</time>
      </trkpt>
      <trkpt lat="46.2925" lon="4.30842">
        <ele>374.57</ele>
        <time>2021-11-01T15:59:57Z</time>
      </trkpt>
      <trkpt lat="46.2925" lon="4.30841">
        <ele>374.09</ele>
        <time>2021-11-01T16:00:09Z</time>
      </trkpt>
      <trkpt lat="46.2925" lon="4.30841">
        <ele>373.61</ele>
        <time>2021-11-01T16:00:20Z</time>
      </trkpt>
      <trkpt lat="46.2925" lon="4.30843">
        <ele>374.09</ele>
        <time>2021-11-01T16:00:38Z</time>
      </trkpt>
      <trkpt lat="46.29247" lon="4.30845">
        <ele>373.61</ele>
        <time>2021-11-01T16:00:43Z</time>
      </trkpt>
      <trkpt lat="46.29246" lon="4.30843">
        <ele>373.61</ele>
        <time>2021-11-01T16:00:54Z</time>
      </trkpt>
      <trkpt lat="46.29248" lon="4.30822">
        <ele>373.61</ele>
        <time>2021-11-01T16:01:07Z</time>
      </trkpt>
    </trkseg>
  </trk>
</gpx>